<?xml version="1.0" encoding="UTF-8" standalone="no" ?>
<gpx xmlns="http://www.topografix.com/GPX/1/1" xmlns:xsi="http://www.w3.org/2001/XMLSchema-instance" xsi:schemaLocation="http://www.topografix.com/GPX/1/1 http://www.topografix.com/GPX/1/1/gpx.xsd" version="1.1" creator="VisuGPX - https://www.visugpx.com">
  <metadata>
    <name>Trail du Cavu 2022</name>
    <desc><![CDATA[Tracé du trail du Cavu du 03/07/2022]]></desc>
  </metadata>
  <trk>
    <name><![CDATA[Trail du Cavu 2022]]></name>
    <extensions>
      <line xmlns="http://www.topografix.com/GPX/gpx_style/0/2">
        <color>0000FF</color>
        <opacity>1</opacity>
        <width>3</width>
          <extensions>
            <sens>1</sens>
          </extensions>
      </line>
    </extensions>
    <trkseg>
      <trkpt lat="41.71956" lon="9.30151">
        <ele>135.5</ele>
      </trkpt>
      <trkpt lat="41.72018" lon="9.30108">
        <ele>132.4</ele>
      </trkpt>
      <trkpt lat="41.72053" lon="9.30089">
        <ele>132.1</ele>
      </trkpt>
      <trkpt lat="41.72083" lon="9.30079">
        <ele>131.4</ele>
      </trkpt>
      <trkpt lat="41.72127" lon="9.30054">
        <ele>133.6</ele>
        <time>2021-03-30T13:00:49Z</time>
      </trkpt>
      <trkpt lat="41.72147" lon="9.30045">
        <ele>132.8</ele>
      </trkpt>
      <trkpt lat="41.72154" lon="9.30052">
        <ele>131.7</ele>
      </trkpt>
      <trkpt lat="41.72185" lon="9.3003">
        <ele>135.6</ele>
        <time>2021-03-30T13:01:49Z</time>
      </trkpt>
      <trkpt lat="41.72216" lon="9.30011">
        <ele>135.5</ele>
        <time>2021-03-30T13:02:17Z</time>
      </trkpt>
      <trkpt lat="41.72243" lon="9.29996">
        <ele>134.6</ele>
        <time>2021-03-30T13:02:36Z</time>
      </trkpt>
      <trkpt lat="41.72265" lon="9.29981">
        <ele>133.5</ele>
      </trkpt>
      <trkpt lat="41.72275" lon="9.2998">
        <ele>133.1</ele>
      </trkpt>
      <trkpt lat="41.72288" lon="9.2997">
        <ele>137.5</ele>
        <time>2021-03-30T13:03:54Z</time>
      </trkpt>
      <trkpt lat="41.72301" lon="9.29959">
        <ele>134</ele>
      </trkpt>
      <trkpt lat="41.72314" lon="9.29957">
        <ele>138.3</ele>
        <time>2021-03-30T13:04:27Z</time>
      </trkpt>
      <trkpt lat="41.72336" lon="9.29936">
        <ele>138.3</ele>
        <time>2021-03-30T13:05:03Z</time>
      </trkpt>
      <trkpt lat="41.72362" lon="9.29918">
        <ele>137.7</ele>
        <time>2021-03-30T13:05:37Z</time>
      </trkpt>
      <trkpt lat="41.72403" lon="9.29874">
        <ele>139.1</ele>
        <time>2021-03-30T13:06:36Z</time>
      </trkpt>
      <trkpt lat="41.72424" lon="9.29851">
        <ele>139.4</ele>
        <time>2021-03-30T13:07:07Z</time>
      </trkpt>
      <trkpt lat="41.72446" lon="9.29824">
        <ele>139.7</ele>
        <time>2021-03-30T13:07:34Z</time>
      </trkpt>
      <trkpt lat="41.72482" lon="9.29775">
        <ele>140.7</ele>
        <time>2021-03-30T13:08:57Z</time>
      </trkpt>
      <trkpt lat="41.72504" lon="9.2975">
        <ele>140.1</ele>
        <time>2021-03-30T13:09:30Z</time>
      </trkpt>
      <trkpt lat="41.72532" lon="9.29741">
        <ele>141.5</ele>
        <time>2021-03-30T13:10:11Z</time>
      </trkpt>
      <trkpt lat="41.72541" lon="9.29725">
        <ele>139.9</ele>
        <time>2021-03-30T13:12:34Z</time>
      </trkpt>
      <trkpt lat="41.72559" lon="9.29691">
        <ele>143.8</ele>
      </trkpt>
      <trkpt lat="41.72573" lon="9.29681">
        <ele>143.4</ele>
        <time>2021-03-30T13:13:35Z</time>
      </trkpt>
      <trkpt lat="41.72584" lon="9.29673">
        <ele>143.6</ele>
      </trkpt>
      <trkpt lat="41.72595" lon="9.29661">
        <ele>143.7</ele>
        <time>2021-03-30T13:14:06Z</time>
      </trkpt>
      <trkpt lat="41.72614" lon="9.29643">
        <ele>146.1</ele>
        <time>2021-03-30T13:14:29Z</time>
      </trkpt>
      <trkpt lat="41.72634" lon="9.29625">
        <ele>145.2</ele>
      </trkpt>
      <trkpt lat="41.7265" lon="9.29599">
        <ele>148.1</ele>
        <time>2021-03-30T13:15:14Z</time>
      </trkpt>
      <trkpt lat="41.72676" lon="9.29585">
        <ele>150.8</ele>
        <time>2021-03-30T13:15:43Z</time>
      </trkpt>
      <trkpt lat="41.72704" lon="9.29571">
        <ele>149.9</ele>
        <time>2021-03-30T13:16:08Z</time>
      </trkpt>
      <trkpt lat="41.7272" lon="9.29546">
        <ele>151.4</ele>
      </trkpt>
      <trkpt lat="41.72761" lon="9.29499">
        <ele>150.2</ele>
        <time>2021-03-30T13:17:22Z</time>
      </trkpt>
      <trkpt lat="41.7279" lon="9.29505">
        <ele>147.4</ele>
        <time>2021-03-30T13:17:51Z</time>
      </trkpt>
      <trkpt lat="41.72803" lon="9.29476">
        <ele>148.6</ele>
        <time>2021-03-30T13:18:23Z</time>
      </trkpt>
      <trkpt lat="41.72827" lon="9.29435">
        <ele>149.2</ele>
      </trkpt>
      <trkpt lat="41.72838" lon="9.29425">
        <ele>149.4</ele>
      </trkpt>
      <trkpt lat="41.72826" lon="9.29418">
        <ele>151.1</ele>
        <time>2021-03-30T13:19:23Z</time>
      </trkpt>
      <trkpt lat="41.72821" lon="9.29409">
        <ele>156</ele>
      </trkpt>
      <trkpt lat="41.72812" lon="9.29403">
        <ele>136</ele>
      </trkpt>
      <trkpt lat="41.72797" lon="9.29398">
        <ele>158.6</ele>
      </trkpt>
      <trkpt lat="41.72783" lon="9.2939">
        <ele>159.9</ele>
      </trkpt>
      <trkpt lat="41.72772" lon="9.2938">
        <ele>162.6</ele>
      </trkpt>
      <trkpt lat="41.72761" lon="9.29375">
        <ele>163.9</ele>
      </trkpt>
      <trkpt lat="41.7275" lon="9.2936">
        <ele>164.5</ele>
      </trkpt>
      <trkpt lat="41.7275" lon="9.29347">
        <ele>148</ele>
      </trkpt>
      <trkpt lat="41.72741" lon="9.29349">
        <ele>168.7</ele>
      </trkpt>
      <trkpt lat="41.72734" lon="9.29356">
        <ele>168.3</ele>
      </trkpt>
      <trkpt lat="41.72728" lon="9.29343">
        <ele>170.5</ele>
      </trkpt>
      <trkpt lat="41.72717" lon="9.29331">
        <ele>172.2</ele>
      </trkpt>
      <trkpt lat="41.72711" lon="9.29307">
        <ele>177.7</ele>
      </trkpt>
      <trkpt lat="41.72692" lon="9.29286">
        <ele>180.7</ele>
      </trkpt>
      <trkpt lat="41.7269" lon="9.29271">
        <ele>183.4</ele>
      </trkpt>
      <trkpt lat="41.72685" lon="9.29258">
        <ele>186.5</ele>
      </trkpt>
      <trkpt lat="41.7267" lon="9.29241">
        <ele>189.7</ele>
      </trkpt>
      <trkpt lat="41.7266" lon="9.29222">
        <ele>192.9</ele>
      </trkpt>
      <trkpt lat="41.72668" lon="9.29208">
        <ele>197</ele>
      </trkpt>
      <trkpt lat="41.72666" lon="9.29198">
        <ele>198.3</ele>
      </trkpt>
      <trkpt lat="41.72654" lon="9.29191">
        <ele>198.5</ele>
      </trkpt>
      <trkpt lat="41.72644" lon="9.29189">
        <ele>197.5</ele>
      </trkpt>
      <trkpt lat="41.72634" lon="9.2918">
        <ele>198.8</ele>
      </trkpt>
      <trkpt lat="41.72625" lon="9.2917">
        <ele>201</ele>
      </trkpt>
      <trkpt lat="41.72611" lon="9.29164">
        <ele>201.5</ele>
      </trkpt>
      <trkpt lat="41.72595" lon="9.29159">
        <ele>200.2</ele>
      </trkpt>
      <trkpt lat="41.72591" lon="9.29149">
        <ele>202.2</ele>
      </trkpt>
      <trkpt lat="41.72589" lon="9.29133">
        <ele>206.2</ele>
      </trkpt>
      <trkpt lat="41.726" lon="9.2912">
        <ele>211.2</ele>
      </trkpt>
      <trkpt lat="41.72598" lon="9.2911">
        <ele>213.9</ele>
      </trkpt>
      <trkpt lat="41.72581" lon="9.29105">
        <ele>212.4</ele>
      </trkpt>
      <trkpt lat="41.72564" lon="9.29097">
        <ele>195</ele>
      </trkpt>
      <trkpt lat="41.72548" lon="9.29111">
        <ele>201</ele>
      </trkpt>
      <trkpt lat="41.72538" lon="9.29115">
        <ele>204</ele>
      </trkpt>
      <trkpt lat="41.72528" lon="9.29125">
        <ele>208</ele>
      </trkpt>
      <trkpt lat="41.72536" lon="9.29135">
        <ele>208</ele>
      </trkpt>
      <trkpt lat="41.72516" lon="9.29142">
        <ele>211</ele>
      </trkpt>
      <trkpt lat="41.72532" lon="9.29153">
        <ele>210</ele>
      </trkpt>
      <trkpt lat="41.72523" lon="9.29154">
        <ele>212</ele>
      </trkpt>
      <trkpt lat="41.72507" lon="9.29169">
        <ele>231.8</ele>
      </trkpt>
      <trkpt lat="41.72497" lon="9.29175">
        <ele>237.2</ele>
      </trkpt>
      <trkpt lat="41.72497" lon="9.29203">
        <ele>231</ele>
      </trkpt>
      <trkpt lat="41.72493" lon="9.29212">
        <ele>246.9</ele>
      </trkpt>
      <trkpt lat="41.72489" lon="9.29215">
        <ele>249.4</ele>
      </trkpt>
      <trkpt lat="41.72489" lon="9.29225">
        <ele>251.9</ele>
      </trkpt>
      <trkpt lat="41.72471" lon="9.29219">
        <ele>259.1</ele>
      </trkpt>
      <trkpt lat="41.72463" lon="9.2924">
        <ele>268</ele>
      </trkpt>
      <trkpt lat="41.7246" lon="9.29254">
        <ele>254</ele>
      </trkpt>
      <trkpt lat="41.72458" lon="9.29278">
        <ele>260</ele>
      </trkpt>
      <trkpt lat="41.72465" lon="9.29296">
        <ele>278.3</ele>
      </trkpt>
      <trkpt lat="41.7247" lon="9.29303">
        <ele>278.1</ele>
      </trkpt>
      <trkpt lat="41.72481" lon="9.29317">
        <ele>280</ele>
      </trkpt>
      <trkpt lat="41.72484" lon="9.29322">
        <ele>276.8</ele>
      </trkpt>
      <trkpt lat="41.72483" lon="9.2933">
        <ele>277.3</ele>
      </trkpt>
      <trkpt lat="41.72485" lon="9.2935">
        <ele>275.6</ele>
      </trkpt>
      <trkpt lat="41.72488" lon="9.29378">
        <ele>270.9</ele>
      </trkpt>
      <trkpt lat="41.72476" lon="9.29419">
        <ele>269.7</ele>
      </trkpt>
      <trkpt lat="41.7247" lon="9.29435">
        <ele>270.9</ele>
      </trkpt>
      <trkpt lat="41.72455" lon="9.29446">
        <ele>270</ele>
      </trkpt>
      <trkpt lat="41.7244" lon="9.29471">
        <ele>262.2</ele>
      </trkpt>
      <trkpt lat="41.72411" lon="9.29486">
        <ele>260</ele>
      </trkpt>
      <trkpt lat="41.72396" lon="9.29491">
        <ele>254.8</ele>
      </trkpt>
      <trkpt lat="41.72382" lon="9.29505">
        <ele>249.6</ele>
      </trkpt>
      <trkpt lat="41.72371" lon="9.29517">
        <ele>245.7</ele>
      </trkpt>
      <trkpt lat="41.72359" lon="9.29531">
        <ele>240.8</ele>
      </trkpt>
      <trkpt lat="41.72344" lon="9.29536">
        <ele>238.5</ele>
      </trkpt>
      <trkpt lat="41.72331" lon="9.29538">
        <ele>236.9</ele>
      </trkpt>
      <trkpt lat="41.72331" lon="9.29548">
        <ele>231.9</ele>
      </trkpt>
      <trkpt lat="41.72326" lon="9.29553">
        <ele>229.4</ele>
      </trkpt>
      <trkpt lat="41.72316" lon="9.29556">
        <ele>228</ele>
      </trkpt>
      <trkpt lat="41.72302" lon="9.29565">
        <ele>224.5</ele>
      </trkpt>
      <trkpt lat="41.7229" lon="9.2958">
        <ele>220.6</ele>
      </trkpt>
      <trkpt lat="41.72288" lon="9.29595">
        <ele>214.6</ele>
      </trkpt>
      <trkpt lat="41.72276" lon="9.29615">
        <ele>222</ele>
      </trkpt>
      <trkpt lat="41.72267" lon="9.29623">
        <ele>210.9</ele>
      </trkpt>
      <trkpt lat="41.72255" lon="9.29644">
        <ele>210.6</ele>
      </trkpt>
      <trkpt lat="41.72248" lon="9.29657">
        <ele>212.8</ele>
      </trkpt>
      <trkpt lat="41.72242" lon="9.29668">
        <ele>222</ele>
      </trkpt>
      <trkpt lat="41.72236" lon="9.29684">
        <ele>214.9</ele>
      </trkpt>
      <trkpt lat="41.72227" lon="9.297">
        <ele>217.1</ele>
      </trkpt>
      <trkpt lat="41.72222" lon="9.29703">
        <ele>219.9</ele>
      </trkpt>
      <trkpt lat="41.72218" lon="9.29714">
        <ele>218.7</ele>
      </trkpt>
      <trkpt lat="41.72216" lon="9.29721">
        <ele>217.4</ele>
      </trkpt>
      <trkpt lat="41.72209" lon="9.29726">
        <ele>218.6</ele>
      </trkpt>
      <trkpt lat="41.72204" lon="9.29732">
        <ele>218.8</ele>
      </trkpt>
      <trkpt lat="41.72194" lon="9.29731">
        <ele>223.3</ele>
      </trkpt>
      <trkpt lat="41.72188" lon="9.29736">
        <ele>222</ele>
      </trkpt>
      <trkpt lat="41.7218" lon="9.29735">
        <ele>221.2</ele>
      </trkpt>
      <trkpt lat="41.72169" lon="9.29735">
        <ele>225</ele>
      </trkpt>
      <trkpt lat="41.72156" lon="9.29728">
        <ele>223.4</ele>
      </trkpt>
      <trkpt lat="41.72151" lon="9.29719">
        <ele>227.2</ele>
      </trkpt>
      <trkpt lat="41.72133" lon="9.29712">
        <ele>229.7</ele>
      </trkpt>
      <trkpt lat="41.72116" lon="9.29712">
        <ele>231.6</ele>
      </trkpt>
      <trkpt lat="41.72097" lon="9.29716">
        <ele>234.6</ele>
      </trkpt>
      <trkpt lat="41.72089" lon="9.29716">
        <ele>236.8</ele>
      </trkpt>
      <trkpt lat="41.72079" lon="9.29734">
        <ele>240.3</ele>
      </trkpt>
      <trkpt lat="41.72073" lon="9.29739">
        <ele>243.3</ele>
      </trkpt>
      <trkpt lat="41.72064" lon="9.29741">
        <ele>247.2</ele>
      </trkpt>
      <trkpt lat="41.7206" lon="9.29751">
        <ele>248.2</ele>
      </trkpt>
      <trkpt lat="41.72052" lon="9.29758">
        <ele>246.8</ele>
      </trkpt>
      <trkpt lat="41.72042" lon="9.29754">
        <ele>244.1</ele>
      </trkpt>
      <trkpt lat="41.72031" lon="9.29744">
        <ele>244</ele>
      </trkpt>
      <trkpt lat="41.72013" lon="9.29746">
        <ele>240.5</ele>
      </trkpt>
      <trkpt lat="41.71996" lon="9.29744">
        <ele>240.2</ele>
      </trkpt>
      <trkpt lat="41.71957" lon="9.29784">
        <ele>224.6</ele>
      </trkpt>
      <trkpt lat="41.71946" lon="9.29787">
        <ele>225.3</ele>
      </trkpt>
      <trkpt lat="41.71925" lon="9.29782">
        <ele>232</ele>
      </trkpt>
      <trkpt lat="41.71916" lon="9.29782">
        <ele>234.2</ele>
      </trkpt>
      <trkpt lat="41.71909" lon="9.29762">
        <ele>249</ele>
      </trkpt>
      <trkpt lat="41.71898" lon="9.29754">
        <ele>247.5</ele>
      </trkpt>
      <trkpt lat="41.7189" lon="9.29748">
        <ele>250.3</ele>
      </trkpt>
      <trkpt lat="41.71882" lon="9.2975">
        <ele>251.4</ele>
      </trkpt>
      <trkpt lat="41.71857" lon="9.29746">
        <ele>256.4</ele>
      </trkpt>
      <trkpt lat="41.71857" lon="9.29719">
        <ele>264.3</ele>
      </trkpt>
      <trkpt lat="41.71861" lon="9.29709">
        <ele>273</ele>
      </trkpt>
      <trkpt lat="41.71874" lon="9.29692">
        <ele>269.6</ele>
      </trkpt>
      <trkpt lat="41.7188" lon="9.29677">
        <ele>273.7</ele>
      </trkpt>
      <trkpt lat="41.7189" lon="9.29668">
        <ele>275.5</ele>
      </trkpt>
      <trkpt lat="41.71904" lon="9.29655">
        <ele>280.6</ele>
      </trkpt>
      <trkpt lat="41.7192" lon="9.29652">
        <ele>282.2</ele>
      </trkpt>
      <trkpt lat="41.71931" lon="9.29645">
        <ele>286.1</ele>
      </trkpt>
      <trkpt lat="41.71935" lon="9.29644">
        <ele>286.7</ele>
      </trkpt>
      <trkpt lat="41.71938" lon="9.2965">
        <ele>284.8</ele>
      </trkpt>
      <trkpt lat="41.71951" lon="9.29625">
        <ele>300</ele>
      </trkpt>
      <trkpt lat="41.71962" lon="9.29613">
        <ele>295.5</ele>
      </trkpt>
      <trkpt lat="41.71973" lon="9.29605">
        <ele>294.6</ele>
      </trkpt>
      <trkpt lat="41.7198" lon="9.29584">
        <ele>296</ele>
      </trkpt>
      <trkpt lat="41.71996" lon="9.29566">
        <ele>309</ele>
      </trkpt>
      <trkpt lat="41.72008" lon="9.2955">
        <ele>300.1</ele>
      </trkpt>
      <trkpt lat="41.72012" lon="9.29535">
        <ele>305</ele>
      </trkpt>
      <trkpt lat="41.72021" lon="9.29531">
        <ele>316</ele>
      </trkpt>
      <trkpt lat="41.72029" lon="9.29529">
        <ele>305.8</ele>
      </trkpt>
      <trkpt lat="41.72039" lon="9.29535">
        <ele>316</ele>
      </trkpt>
      <trkpt lat="41.7205" lon="9.29541">
        <ele>305</ele>
      </trkpt>
      <trkpt lat="41.72058" lon="9.29539">
        <ele>307.7</ele>
      </trkpt>
      <trkpt lat="41.72066" lon="9.29541">
        <ele>309.4</ele>
      </trkpt>
      <trkpt lat="41.72077" lon="9.29557">
        <ele>307.5</ele>
      </trkpt>
      <trkpt lat="41.72085" lon="9.29571">
        <ele>303.6</ele>
      </trkpt>
      <trkpt lat="41.7209" lon="9.29568">
        <ele>305.5</ele>
      </trkpt>
      <trkpt lat="41.72092" lon="9.29549">
        <ele>312.6</ele>
      </trkpt>
      <trkpt lat="41.72108" lon="9.29539">
        <ele>316.5</ele>
      </trkpt>
      <trkpt lat="41.72108" lon="9.29531">
        <ele>319</ele>
      </trkpt>
      <trkpt lat="41.72101" lon="9.29522">
        <ele>322</ele>
      </trkpt>
      <trkpt lat="41.72096" lon="9.29511">
        <ele>326</ele>
      </trkpt>
      <trkpt lat="41.72093" lon="9.29501">
        <ele>327.8</ele>
      </trkpt>
      <trkpt lat="41.72098" lon="9.29492">
        <ele>330.4</ele>
      </trkpt>
      <trkpt lat="41.72103" lon="9.29478">
        <ele>334.3</ele>
      </trkpt>
      <trkpt lat="41.72109" lon="9.29474">
        <ele>334.8</ele>
      </trkpt>
      <trkpt lat="41.72114" lon="9.29476">
        <ele>333.8</ele>
      </trkpt>
      <trkpt lat="41.72124" lon="9.29466">
        <ele>335.2</ele>
      </trkpt>
      <trkpt lat="41.7213" lon="9.29457">
        <ele>337.1</ele>
      </trkpt>
      <trkpt lat="41.72144" lon="9.29455">
        <ele>335.5</ele>
      </trkpt>
      <trkpt lat="41.72154" lon="9.29442">
        <ele>337</ele>
      </trkpt>
      <trkpt lat="41.72168" lon="9.29434">
        <ele>337.6</ele>
      </trkpt>
      <trkpt lat="41.72178" lon="9.29437">
        <ele>335.7</ele>
      </trkpt>
      <trkpt lat="41.72188" lon="9.29433">
        <ele>336.1</ele>
      </trkpt>
      <trkpt lat="41.72195" lon="9.29443">
        <ele>332.5</ele>
      </trkpt>
      <trkpt lat="41.72203" lon="9.29442">
        <ele>331.9</ele>
      </trkpt>
      <trkpt lat="41.72209" lon="9.29436">
        <ele>332.7</ele>
      </trkpt>
      <trkpt lat="41.7221" lon="9.29429">
        <ele>334.2</ele>
      </trkpt>
      <trkpt lat="41.72218" lon="9.29424">
        <ele>334.3</ele>
      </trkpt>
      <trkpt lat="41.72225" lon="9.2942">
        <ele>338</ele>
      </trkpt>
      <trkpt lat="41.72229" lon="9.29418">
        <ele>332.4</ele>
      </trkpt>
      <trkpt lat="41.72231" lon="9.2941">
        <ele>341</ele>
      </trkpt>
      <trkpt lat="41.72235" lon="9.29399">
        <ele>345</ele>
      </trkpt>
      <trkpt lat="41.72233" lon="9.29385">
        <ele>345</ele>
      </trkpt>
      <trkpt lat="41.72229" lon="9.29373">
        <ele>349.6</ele>
      </trkpt>
      <trkpt lat="41.72236" lon="9.29366">
        <ele>350.9</ele>
      </trkpt>
      <trkpt lat="41.72251" lon="9.2937">
        <ele>348</ele>
      </trkpt>
      <trkpt lat="41.7226" lon="9.29367">
        <ele>350</ele>
      </trkpt>
      <trkpt lat="41.72271" lon="9.29365">
        <ele>344.5</ele>
      </trkpt>
      <trkpt lat="41.72282" lon="9.29359">
        <ele>343.8</ele>
      </trkpt>
      <trkpt lat="41.72287" lon="9.29358">
        <ele>343</ele>
      </trkpt>
      <trkpt lat="41.72297" lon="9.29351">
        <ele>342.8</ele>
      </trkpt>
      <trkpt lat="41.72303" lon="9.29342">
        <ele>346</ele>
      </trkpt>
      <trkpt lat="41.72313" lon="9.29339">
        <ele>339.9</ele>
      </trkpt>
      <trkpt lat="41.72321" lon="9.29332">
        <ele>338.2</ele>
      </trkpt>
      <trkpt lat="41.72322" lon="9.29322">
        <ele>338.9</ele>
      </trkpt>
      <trkpt lat="41.72333" lon="9.29318">
        <ele>334.8</ele>
      </trkpt>
      <trkpt lat="41.72341" lon="9.29338">
        <ele>328.7</ele>
      </trkpt>
      <trkpt lat="41.72352" lon="9.29347">
        <ele>321.9</ele>
      </trkpt>
      <trkpt lat="41.7236" lon="9.29356">
        <ele>316</ele>
      </trkpt>
      <trkpt lat="41.72372" lon="9.29371">
        <ele>306.7</ele>
      </trkpt>
      <trkpt lat="41.7237" lon="9.2939">
        <ele>299.5</ele>
      </trkpt>
      <trkpt lat="41.72372" lon="9.29396">
        <ele>296.8</ele>
      </trkpt>
      <trkpt lat="41.72368" lon="9.29398">
        <ele>297.2</ele>
      </trkpt>
      <trkpt lat="41.72369" lon="9.29417">
        <ele>290.8</ele>
      </trkpt>
      <trkpt lat="41.72355" lon="9.2943">
        <ele>288.4</ele>
      </trkpt>
      <trkpt lat="41.72339" lon="9.29438">
        <ele>288.3</ele>
      </trkpt>
      <trkpt lat="41.72326" lon="9.29444">
        <ele>296</ele>
      </trkpt>
      <trkpt lat="41.72329" lon="9.2945">
        <ele>284.2</ele>
      </trkpt>
      <trkpt lat="41.72346" lon="9.29451">
        <ele>280.5</ele>
      </trkpt>
      <trkpt lat="41.72353" lon="9.29448">
        <ele>280.8</ele>
      </trkpt>
      <trkpt lat="41.72363" lon="9.29451">
        <ele>277.7</ele>
      </trkpt>
      <trkpt lat="41.72368" lon="9.29462">
        <ele>271.9</ele>
      </trkpt>
      <trkpt lat="41.72379" lon="9.29465">
        <ele>268.2</ele>
      </trkpt>
      <trkpt lat="41.72384" lon="9.29461">
        <ele>273</ele>
      </trkpt>
      <trkpt lat="41.72421" lon="9.29458">
        <ele>266.4</ele>
      </trkpt>
      <trkpt lat="41.72424" lon="9.2945">
        <ele>268.6</ele>
      </trkpt>
      <trkpt lat="41.72433" lon="9.29446">
        <ele>268.9</ele>
      </trkpt>
      <trkpt lat="41.72442" lon="9.2945">
        <ele>267.1</ele>
      </trkpt>
      <trkpt lat="41.72454" lon="9.29448">
        <ele>269</ele>
      </trkpt>
      <trkpt lat="41.72465" lon="9.2944">
        <ele>270.5</ele>
      </trkpt>
      <trkpt lat="41.72474" lon="9.2942">
        <ele>270.5</ele>
      </trkpt>
      <trkpt lat="41.7248" lon="9.29405">
        <ele>269.8</ele>
      </trkpt>
      <trkpt lat="41.72486" lon="9.29382">
        <ele>277</ele>
      </trkpt>
      <trkpt lat="41.72481" lon="9.29337">
        <ele>282</ele>
      </trkpt>
      <trkpt lat="41.72482" lon="9.29322">
        <ele>277.1</ele>
      </trkpt>
      <trkpt lat="41.72477" lon="9.29317">
        <ele>277.8</ele>
      </trkpt>
      <trkpt lat="41.72471" lon="9.29321">
        <ele>279</ele>
      </trkpt>
      <trkpt lat="41.72455" lon="9.29326">
        <ele>291</ele>
      </trkpt>
      <trkpt lat="41.72439" lon="9.29306">
        <ele>297</ele>
      </trkpt>
      <trkpt lat="41.72436" lon="9.29293">
        <ele>297</ele>
      </trkpt>
      <trkpt lat="41.72416" lon="9.29283">
        <ele>305</ele>
      </trkpt>
      <trkpt lat="41.72406" lon="9.29266">
        <ele>299</ele>
      </trkpt>
      <trkpt lat="41.72391" lon="9.29227">
        <ele>313</ele>
      </trkpt>
      <trkpt lat="41.72362" lon="9.2921">
        <ele>318.4</ele>
      </trkpt>
      <trkpt lat="41.72355" lon="9.29216">
        <ele>323.4</ele>
      </trkpt>
      <trkpt lat="41.72349" lon="9.29215">
        <ele>326.6</ele>
      </trkpt>
      <trkpt lat="41.72339" lon="9.29185">
        <ele>336</ele>
      </trkpt>
      <trkpt lat="41.72326" lon="9.29169">
        <ele>352</ele>
      </trkpt>
      <trkpt lat="41.72318" lon="9.29147">
        <ele>351.8</ele>
      </trkpt>
      <trkpt lat="41.72322" lon="9.29122">
        <ele>367</ele>
      </trkpt>
      <trkpt lat="41.72318" lon="9.29104">
        <ele>365.4</ele>
      </trkpt>
      <trkpt lat="41.72321" lon="9.29069">
        <ele>372.8</ele>
      </trkpt>
      <trkpt lat="41.72316" lon="9.2907">
        <ele>366.1</ele>
      </trkpt>
      <trkpt lat="41.72311" lon="9.29041">
        <ele>386</ele>
      </trkpt>
      <trkpt lat="41.72281" lon="9.29041">
        <ele>402</ele>
      </trkpt>
      <trkpt lat="41.72273" lon="9.29038">
        <ele>406</ele>
      </trkpt>
      <trkpt lat="41.72267" lon="9.29046">
        <ele>409</ele>
      </trkpt>
      <trkpt lat="41.72261" lon="9.29049">
        <ele>411</ele>
      </trkpt>
      <trkpt lat="41.72245" lon="9.29025">
        <ele>407.3</ele>
      </trkpt>
      <trkpt lat="41.72231" lon="9.29014">
        <ele>429</ele>
      </trkpt>
      <trkpt lat="41.7221" lon="9.29028">
        <ele>434</ele>
      </trkpt>
      <trkpt lat="41.72199" lon="9.29026">
        <ele>444</ele>
      </trkpt>
      <trkpt lat="41.72186" lon="9.29041">
        <ele>431.6</ele>
      </trkpt>
      <trkpt lat="41.72174" lon="9.2904">
        <ele>449</ele>
      </trkpt>
      <trkpt lat="41.72162" lon="9.29044">
        <ele>451</ele>
      </trkpt>
      <trkpt lat="41.72154" lon="9.29045">
        <ele>453</ele>
      </trkpt>
      <trkpt lat="41.7215" lon="9.29034">
        <ele>457</ele>
      </trkpt>
      <trkpt lat="41.72136" lon="9.29032">
        <ele>460</ele>
      </trkpt>
      <trkpt lat="41.72128" lon="9.29032">
        <ele>461</ele>
      </trkpt>
      <trkpt lat="41.7212" lon="9.29029">
        <ele>463</ele>
      </trkpt>
      <trkpt lat="41.72115" lon="9.29019">
        <ele>459.3</ele>
      </trkpt>
      <trkpt lat="41.72114" lon="9.28998">
        <ele>463.5</ele>
      </trkpt>
      <trkpt lat="41.72099" lon="9.29002">
        <ele>471</ele>
      </trkpt>
      <trkpt lat="41.72068" lon="9.28999">
        <ele>468.9</ele>
      </trkpt>
      <trkpt lat="41.72058" lon="9.28994">
        <ele>477</ele>
      </trkpt>
      <trkpt lat="41.72037" lon="9.28972">
        <ele>466.9</ele>
      </trkpt>
      <trkpt lat="41.72012" lon="9.28941">
        <ele>469.9</ele>
      </trkpt>
      <trkpt lat="41.7197" lon="9.28902">
        <ele>467.3</ele>
      </trkpt>
      <trkpt lat="41.71975" lon="9.28877">
        <ele>467.8</ele>
      </trkpt>
      <trkpt lat="41.71968" lon="9.28853">
        <ele>467.2</ele>
      </trkpt>
      <trkpt lat="41.71962" lon="9.28837">
        <ele>467.1</ele>
      </trkpt>
      <trkpt lat="41.71962" lon="9.28817">
        <ele>467.5</ele>
      </trkpt>
      <trkpt lat="41.7196" lon="9.28803">
        <ele>472.2</ele>
      </trkpt>
      <trkpt lat="41.71952" lon="9.28785">
        <ele>473</ele>
      </trkpt>
      <trkpt lat="41.7195" lon="9.28768">
        <ele>473.4</ele>
      </trkpt>
      <trkpt lat="41.71953" lon="9.28751">
        <ele>473.7</ele>
      </trkpt>
      <trkpt lat="41.71976" lon="9.28743">
        <ele>468.9</ele>
      </trkpt>
      <trkpt lat="41.71998" lon="9.28734">
        <ele>467.5</ele>
      </trkpt>
      <trkpt lat="41.72041" lon="9.28707">
        <ele>459.6</ele>
      </trkpt>
      <trkpt lat="41.72065" lon="9.28693">
        <ele>457</ele>
      </trkpt>
      <trkpt lat="41.72089" lon="9.28687">
        <ele>448.6</ele>
      </trkpt>
      <trkpt lat="41.72106" lon="9.28684">
        <ele>444.4</ele>
      </trkpt>
      <trkpt lat="41.72127" lon="9.28682">
        <ele>439.2</ele>
      </trkpt>
      <trkpt lat="41.72152" lon="9.2867">
        <ele>442</ele>
      </trkpt>
      <trkpt lat="41.72171" lon="9.28659">
        <ele>428.5</ele>
      </trkpt>
      <trkpt lat="41.72193" lon="9.28661">
        <ele>421.4</ele>
      </trkpt>
      <trkpt lat="41.72203" lon="9.2866">
        <ele>418.2</ele>
      </trkpt>
      <trkpt lat="41.72215" lon="9.28671">
        <ele>413.1</ele>
      </trkpt>
      <trkpt lat="41.72224" lon="9.28688">
        <ele>416</ele>
      </trkpt>
      <trkpt lat="41.72236" lon="9.28697">
        <ele>412</ele>
      </trkpt>
      <trkpt lat="41.72242" lon="9.28704">
        <ele>410</ele>
      </trkpt>
      <trkpt lat="41.72257" lon="9.28692">
        <ele>403</ele>
      </trkpt>
      <trkpt lat="41.72259" lon="9.28683">
        <ele>402</ele>
      </trkpt>
      <trkpt lat="41.72269" lon="9.28657">
        <ele>401</ele>
      </trkpt>
      <trkpt lat="41.72263" lon="9.28649">
        <ele>403</ele>
      </trkpt>
      <trkpt lat="41.72258" lon="9.28629">
        <ele>404</ele>
      </trkpt>
      <trkpt lat="41.72276" lon="9.28624">
        <ele>405</ele>
      </trkpt>
      <trkpt lat="41.72292" lon="9.28643">
        <ele>396.3</ele>
      </trkpt>
      <trkpt lat="41.72316" lon="9.28646">
        <ele>404.4</ele>
      </trkpt>
      <trkpt lat="41.72333" lon="9.28665">
        <ele>404</ele>
      </trkpt>
      <trkpt lat="41.72345" lon="9.28666">
        <ele>400.6</ele>
      </trkpt>
      <trkpt lat="41.72362" lon="9.2867">
        <ele>406</ele>
      </trkpt>
      <trkpt lat="41.72366" lon="9.28677">
        <ele>403</ele>
      </trkpt>
      <trkpt lat="41.72373" lon="9.28676">
        <ele>404</ele>
      </trkpt>
      <trkpt lat="41.72384" lon="9.28665">
        <ele>409</ele>
      </trkpt>
      <trkpt lat="41.72393" lon="9.2865">
        <ele>406.4</ele>
      </trkpt>
      <trkpt lat="41.72411" lon="9.28641">
        <ele>412</ele>
      </trkpt>
      <trkpt lat="41.72417" lon="9.28634">
        <ele>412</ele>
      </trkpt>
      <trkpt lat="41.72434" lon="9.28618">
        <ele>414</ele>
      </trkpt>
      <trkpt lat="41.72445" lon="9.28611">
        <ele>415</ele>
      </trkpt>
      <trkpt lat="41.7246" lon="9.28614">
        <ele>416.1</ele>
      </trkpt>
      <trkpt lat="41.72468" lon="9.28621">
        <ele>407</ele>
      </trkpt>
      <trkpt lat="41.72494" lon="9.28629">
        <ele>412.8</ele>
      </trkpt>
      <trkpt lat="41.72524" lon="9.28623">
        <ele>412.2</ele>
      </trkpt>
      <trkpt lat="41.72543" lon="9.28616">
        <ele>408</ele>
      </trkpt>
      <trkpt lat="41.72567" lon="9.28602">
        <ele>410.1</ele>
      </trkpt>
      <trkpt lat="41.72578" lon="9.28614">
        <ele>409.7</ele>
      </trkpt>
      <trkpt lat="41.72594" lon="9.28619">
        <ele>412</ele>
      </trkpt>
      <trkpt lat="41.72603" lon="9.28624">
        <ele>413.2</ele>
      </trkpt>
      <trkpt lat="41.72625" lon="9.28627">
        <ele>416.8</ele>
      </trkpt>
      <trkpt lat="41.72644" lon="9.28623">
        <ele>417</ele>
      </trkpt>
      <trkpt lat="41.72651" lon="9.2863">
        <ele>419</ele>
      </trkpt>
      <trkpt lat="41.72662" lon="9.28622">
        <ele>418</ele>
      </trkpt>
      <trkpt lat="41.72666" lon="9.28629">
        <ele>421</ele>
      </trkpt>
      <trkpt lat="41.72662" lon="9.28641">
        <ele>422</ele>
      </trkpt>
      <trkpt lat="41.72668" lon="9.28649">
        <ele>426</ele>
      </trkpt>
      <trkpt lat="41.72681" lon="9.28644">
        <ele>429</ele>
      </trkpt>
      <trkpt lat="41.72696" lon="9.28658">
        <ele>435</ele>
      </trkpt>
      <trkpt lat="41.72709" lon="9.28647">
        <ele>438</ele>
      </trkpt>
      <trkpt lat="41.72717" lon="9.28644">
        <ele>440</ele>
      </trkpt>
      <trkpt lat="41.72734" lon="9.28628">
        <ele>443.9</ele>
      </trkpt>
      <trkpt lat="41.72744" lon="9.28631">
        <ele>446.2</ele>
      </trkpt>
      <trkpt lat="41.72764" lon="9.28623">
        <ele>449.7</ele>
      </trkpt>
      <trkpt lat="41.72778" lon="9.2861">
        <ele>451</ele>
      </trkpt>
      <trkpt lat="41.72801" lon="9.28601">
        <ele>454</ele>
      </trkpt>
      <trkpt lat="41.7282" lon="9.28599">
        <ele>457</ele>
      </trkpt>
      <trkpt lat="41.72837" lon="9.28583">
        <ele>460</ele>
      </trkpt>
      <trkpt lat="41.72846" lon="9.28549">
        <ele>456.4</ele>
      </trkpt>
      <trkpt lat="41.72854" lon="9.28552">
        <ele>461</ele>
      </trkpt>
      <trkpt lat="41.72877" lon="9.28555">
        <ele>467</ele>
      </trkpt>
      <trkpt lat="41.72898" lon="9.28567">
        <ele>472</ele>
      </trkpt>
      <trkpt lat="41.72914" lon="9.28549">
        <ele>473</ele>
      </trkpt>
      <trkpt lat="41.72933" lon="9.28542">
        <ele>477</ele>
      </trkpt>
      <trkpt lat="41.72941" lon="9.2853">
        <ele>479</ele>
      </trkpt>
      <trkpt lat="41.72981" lon="9.28504">
        <ele>481</ele>
      </trkpt>
      <trkpt lat="41.72997" lon="9.28497">
        <ele>481</ele>
      </trkpt>
      <trkpt lat="41.73008" lon="9.28477">
        <ele>480</ele>
      </trkpt>
      <trkpt lat="41.73027" lon="9.28467">
        <ele>482</ele>
      </trkpt>
      <trkpt lat="41.73029" lon="9.28457">
        <ele>480</ele>
      </trkpt>
      <trkpt lat="41.7304" lon="9.28456">
        <ele>471.8</ele>
      </trkpt>
      <trkpt lat="41.73057" lon="9.28453">
        <ele>482</ele>
      </trkpt>
      <trkpt lat="41.73075" lon="9.28447">
        <ele>484</ele>
      </trkpt>
      <trkpt lat="41.73075" lon="9.28435">
        <ele>483</ele>
      </trkpt>
      <trkpt lat="41.73088" lon="9.28426">
        <ele>486</ele>
      </trkpt>
      <trkpt lat="41.73104" lon="9.28381">
        <ele>479.8</ele>
      </trkpt>
      <trkpt lat="41.7312" lon="9.28369">
        <ele>482.1</ele>
      </trkpt>
      <trkpt lat="41.7313" lon="9.28347">
        <ele>483.2</ele>
      </trkpt>
      <trkpt lat="41.73134" lon="9.28335">
        <ele>483.6</ele>
      </trkpt>
      <trkpt lat="41.73143" lon="9.28323">
        <ele>485.5</ele>
      </trkpt>
      <trkpt lat="41.73157" lon="9.28323">
        <ele>496</ele>
      </trkpt>
      <trkpt lat="41.73192" lon="9.28281">
        <ele>502</ele>
      </trkpt>
      <trkpt lat="41.73227" lon="9.28266">
        <ele>509</ele>
      </trkpt>
      <trkpt lat="41.73228" lon="9.28247">
        <ele>510</ele>
      </trkpt>
      <trkpt lat="41.73238" lon="9.28242">
        <ele>510.1</ele>
      </trkpt>
      <trkpt lat="41.7325" lon="9.28223">
        <ele>513</ele>
      </trkpt>
      <trkpt lat="41.73261" lon="9.28227">
        <ele>515.8</ele>
      </trkpt>
      <trkpt lat="41.7328" lon="9.28211">
        <ele>520.8</ele>
      </trkpt>
      <trkpt lat="41.73298" lon="9.28208">
        <ele>511.2</ele>
      </trkpt>
      <trkpt lat="41.73306" lon="9.28222">
        <ele>511.1</ele>
      </trkpt>
      <trkpt lat="41.73324" lon="9.28228">
        <ele>512.6</ele>
      </trkpt>
      <trkpt lat="41.73345" lon="9.28215">
        <ele>513.5</ele>
      </trkpt>
      <trkpt lat="41.73363" lon="9.28202">
        <ele>512.8</ele>
      </trkpt>
      <trkpt lat="41.73382" lon="9.28165">
        <ele>520</ele>
      </trkpt>
      <trkpt lat="41.73402" lon="9.28147">
        <ele>515.6</ele>
      </trkpt>
      <trkpt lat="41.73435" lon="9.28159">
        <ele>511.3</ele>
      </trkpt>
      <trkpt lat="41.73458" lon="9.28209">
        <ele>502.9</ele>
      </trkpt>
      <trkpt lat="41.73475" lon="9.2822">
        <ele>500.7</ele>
      </trkpt>
      <trkpt lat="41.73512" lon="9.28225">
        <ele>507</ele>
      </trkpt>
      <trkpt lat="41.73524" lon="9.28214">
        <ele>503.4</ele>
      </trkpt>
      <trkpt lat="41.73536" lon="9.28182">
        <ele>503.7</ele>
      </trkpt>
      <trkpt lat="41.73545" lon="9.28152">
        <ele>503</ele>
      </trkpt>
      <trkpt lat="41.73549" lon="9.28114">
        <ele>499.8</ele>
      </trkpt>
      <trkpt lat="41.73557" lon="9.28084">
        <ele>494.2</ele>
      </trkpt>
      <trkpt lat="41.73576" lon="9.28059">
        <ele>493.1</ele>
      </trkpt>
      <trkpt lat="41.73638" lon="9.28008">
        <ele>488.9</ele>
      </trkpt>
      <trkpt lat="41.73735" lon="9.27983">
        <ele>480.7</ele>
      </trkpt>
      <trkpt lat="41.73769" lon="9.2796">
        <ele>476.9</ele>
      </trkpt>
      <trkpt lat="41.73784" lon="9.27913">
        <ele>475</ele>
      </trkpt>
      <trkpt lat="41.73798" lon="9.27868">
        <ele>473.4</ele>
      </trkpt>
      <trkpt lat="41.73801" lon="9.27853">
        <ele>472.6</ele>
      </trkpt>
      <trkpt lat="41.73801" lon="9.27819">
        <ele>471.8</ele>
      </trkpt>
      <trkpt lat="41.73882" lon="9.27787">
        <ele>463.7</ele>
      </trkpt>
      <trkpt lat="41.73904" lon="9.27754">
        <ele>461.8</ele>
      </trkpt>
      <trkpt lat="41.73918" lon="9.27739">
        <ele>460.2</ele>
      </trkpt>
      <trkpt lat="41.73936" lon="9.27705">
        <ele>458</ele>
      </trkpt>
      <trkpt lat="41.73981" lon="9.27632">
        <ele>455</ele>
      </trkpt>
      <trkpt lat="41.74035" lon="9.27564">
        <ele>450.4</ele>
      </trkpt>
      <trkpt lat="41.7404" lon="9.27545">
        <ele>448.8</ele>
      </trkpt>
      <trkpt lat="41.74032" lon="9.27485">
        <ele>446.8</ele>
      </trkpt>
      <trkpt lat="41.74039" lon="9.27425">
        <ele>443.9</ele>
      </trkpt>
      <trkpt lat="41.74039" lon="9.27394">
        <ele>440.9</ele>
      </trkpt>
      <trkpt lat="41.74023" lon="9.27349">
        <ele>442.1</ele>
      </trkpt>
      <trkpt lat="41.74054" lon="9.27276">
        <ele>434.1</ele>
      </trkpt>
      <trkpt lat="41.74058" lon="9.27248">
        <ele>433</ele>
      </trkpt>
      <trkpt lat="41.74072" lon="9.27223">
        <ele>430</ele>
      </trkpt>
      <trkpt lat="41.74093" lon="9.27209">
        <ele>427.7</ele>
      </trkpt>
      <trkpt lat="41.74118" lon="9.27196">
        <ele>428.2</ele>
      </trkpt>
      <trkpt lat="41.74143" lon="9.27159">
        <ele>428.3</ele>
      </trkpt>
      <trkpt lat="41.74159" lon="9.27144">
        <ele>426.5</ele>
      </trkpt>
      <trkpt lat="41.74172" lon="9.27122">
        <ele>426.1</ele>
      </trkpt>
      <trkpt lat="41.74191" lon="9.27108">
        <ele>424.3</ele>
      </trkpt>
      <trkpt lat="41.74202" lon="9.27108">
        <ele>423.9</ele>
      </trkpt>
      <trkpt lat="41.74211" lon="9.27122">
        <ele>422.3</ele>
      </trkpt>
      <trkpt lat="41.74213" lon="9.2713">
        <ele>421.2</ele>
      </trkpt>
      <trkpt lat="41.74222" lon="9.27117">
        <ele>422.9</ele>
      </trkpt>
      <trkpt lat="41.74234" lon="9.27096">
        <ele>422.7</ele>
      </trkpt>
      <trkpt lat="41.74237" lon="9.27083">
        <ele>423.2</ele>
      </trkpt>
      <trkpt lat="41.74234" lon="9.2707">
        <ele>422.2</ele>
      </trkpt>
      <trkpt lat="41.74177" lon="9.27051">
        <ele>424.9</ele>
      </trkpt>
      <trkpt lat="41.74158" lon="9.27035">
        <ele>421</ele>
      </trkpt>
      <trkpt lat="41.74119" lon="9.2703">
        <ele>421.3</ele>
      </trkpt>
      <trkpt lat="41.74094" lon="9.27021">
        <ele>416.5</ele>
      </trkpt>
      <trkpt lat="41.74073" lon="9.27035">
        <ele>418</ele>
      </trkpt>
      <trkpt lat="41.74027" lon="9.27049">
        <ele>414.5</ele>
      </trkpt>
      <trkpt lat="41.73979" lon="9.27051">
        <ele>410.6</ele>
      </trkpt>
      <trkpt lat="41.73942" lon="9.27066">
        <ele>412.6</ele>
      </trkpt>
      <trkpt lat="41.73934" lon="9.27057">
        <ele>411.2</ele>
      </trkpt>
      <trkpt lat="41.73955" lon="9.26989">
        <ele>406.9</ele>
      </trkpt>
      <trkpt lat="41.74016" lon="9.26877">
        <ele>400.3</ele>
      </trkpt>
      <trkpt lat="41.74037" lon="9.26843">
        <ele>401</ele>
      </trkpt>
      <trkpt lat="41.74123" lon="9.26757">
        <ele>390</ele>
      </trkpt>
      <trkpt lat="41.74152" lon="9.2672">
        <ele>387.9</ele>
      </trkpt>
      <trkpt lat="41.7417" lon="9.26674">
        <ele>385.8</ele>
      </trkpt>
      <trkpt lat="41.74172" lon="9.26661">
        <ele>384.8</ele>
      </trkpt>
      <trkpt lat="41.74168" lon="9.2665">
        <ele>385</ele>
      </trkpt>
      <trkpt lat="41.74156" lon="9.26615">
        <ele>383.5</ele>
      </trkpt>
      <trkpt lat="41.74142" lon="9.26594">
        <ele>382</ele>
      </trkpt>
      <trkpt lat="41.74091" lon="9.26535">
        <ele>377.2</ele>
      </trkpt>
      <trkpt lat="41.74039" lon="9.26487">
        <ele>372.3</ele>
      </trkpt>
      <trkpt lat="41.74011" lon="9.26469">
        <ele>372.4</ele>
      </trkpt>
      <trkpt lat="41.73969" lon="9.26414">
        <ele>366.9</ele>
      </trkpt>
      <trkpt lat="41.73966" lon="9.26399">
        <ele>363.2</ele>
      </trkpt>
      <trkpt lat="41.73982" lon="9.26375">
        <ele>360.1</ele>
      </trkpt>
      <trkpt lat="41.73997" lon="9.26366">
        <ele>360.9</ele>
      </trkpt>
      <trkpt lat="41.74021" lon="9.26373">
        <ele>362.2</ele>
      </trkpt>
      <trkpt lat="41.74035" lon="9.26397">
        <ele>355.5</ele>
      </trkpt>
      <trkpt lat="41.74065" lon="9.26409">
        <ele>355.7</ele>
      </trkpt>
      <trkpt lat="41.74166" lon="9.26439">
        <ele>352</ele>
      </trkpt>
      <trkpt lat="41.74179" lon="9.2644">
        <ele>359.7</ele>
      </trkpt>
      <trkpt lat="41.74181" lon="9.2643">
        <ele>361.5</ele>
      </trkpt>
      <trkpt lat="41.74158" lon="9.26424">
        <ele>395</ele>
      </trkpt>
      <trkpt lat="41.74199" lon="9.26399">
        <ele>403</ele>
      </trkpt>
      <trkpt lat="41.74194" lon="9.26369">
        <ele>382.5</ele>
      </trkpt>
      <trkpt lat="41.74173" lon="9.26337">
        <ele>389.3</ele>
      </trkpt>
      <trkpt lat="41.74163" lon="9.26307">
        <ele>395.6</ele>
      </trkpt>
      <trkpt lat="41.74189" lon="9.26283">
        <ele>409.7</ele>
      </trkpt>
      <trkpt lat="41.74187" lon="9.2626">
        <ele>416</ele>
      </trkpt>
      <trkpt lat="41.74194" lon="9.26258">
        <ele>418.8</ele>
      </trkpt>
      <trkpt lat="41.74201" lon="9.26244">
        <ele>425.8</ele>
      </trkpt>
      <trkpt lat="41.74188" lon="9.26209">
        <ele>433.6</ele>
      </trkpt>
      <trkpt lat="41.74172" lon="9.26181">
        <ele>470</ele>
      </trkpt>
      <trkpt lat="41.74148" lon="9.26161">
        <ele>440.1</ele>
      </trkpt>
      <trkpt lat="41.74138" lon="9.26148">
        <ele>442.8</ele>
      </trkpt>
      <trkpt lat="41.74131" lon="9.26141">
        <ele>444</ele>
      </trkpt>
      <trkpt lat="41.74138" lon="9.26132">
        <ele>448.2</ele>
      </trkpt>
      <trkpt lat="41.74134" lon="9.26118">
        <ele>453</ele>
      </trkpt>
      <trkpt lat="41.74141" lon="9.26106">
        <ele>457.9</ele>
      </trkpt>
      <trkpt lat="41.74132" lon="9.26093">
        <ele>459.9</ele>
      </trkpt>
      <trkpt lat="41.74133" lon="9.26076">
        <ele>464.6</ele>
      </trkpt>
      <trkpt lat="41.74125" lon="9.26034">
        <ele>466.5</ele>
      </trkpt>
      <trkpt lat="41.74128" lon="9.26011">
        <ele>468.8</ele>
      </trkpt>
      <trkpt lat="41.74142" lon="9.25999">
        <ele>475.8</ele>
      </trkpt>
      <trkpt lat="41.74152" lon="9.25974">
        <ele>475.4</ele>
      </trkpt>
      <trkpt lat="41.74154" lon="9.25949">
        <ele>481.6</ele>
      </trkpt>
      <trkpt lat="41.7417" lon="9.25923">
        <ele>483.6</ele>
      </trkpt>
      <trkpt lat="41.74181" lon="9.25881">
        <ele>485.5</ele>
      </trkpt>
      <trkpt lat="41.74182" lon="9.2585">
        <ele>489.1</ele>
      </trkpt>
      <trkpt lat="41.74172" lon="9.25816">
        <ele>491.9</ele>
      </trkpt>
      <trkpt lat="41.74162" lon="9.25775">
        <ele>500.1</ele>
      </trkpt>
      <trkpt lat="41.74125" lon="9.25789">
        <ele>507.2</ele>
      </trkpt>
      <trkpt lat="41.74123" lon="9.25764">
        <ele>514.8</ele>
      </trkpt>
      <trkpt lat="41.74117" lon="9.25758">
        <ele>514.8</ele>
      </trkpt>
      <trkpt lat="41.74125" lon="9.25732">
        <ele>515.3</ele>
      </trkpt>
      <trkpt lat="41.74095" lon="9.25733">
        <ele>528.9</ele>
      </trkpt>
      <trkpt lat="41.74107" lon="9.25715">
        <ele>529.9</ele>
      </trkpt>
      <trkpt lat="41.74095" lon="9.25674">
        <ele>527.9</ele>
      </trkpt>
      <trkpt lat="41.74083" lon="9.25649">
        <ele>528.3</ele>
      </trkpt>
      <trkpt lat="41.74046" lon="9.25606">
        <ele>561</ele>
      </trkpt>
      <trkpt lat="41.74008" lon="9.25559">
        <ele>561</ele>
      </trkpt>
      <trkpt lat="41.73975" lon="9.2554">
        <ele>541.2</ele>
      </trkpt>
      <trkpt lat="41.73946" lon="9.25477">
        <ele>549.8</ele>
      </trkpt>
      <trkpt lat="41.73917" lon="9.25452">
        <ele>551.2</ele>
      </trkpt>
      <trkpt lat="41.73884" lon="9.25399">
        <ele>550.8</ele>
      </trkpt>
      <trkpt lat="41.73847" lon="9.25394">
        <ele>564.9</ele>
      </trkpt>
      <trkpt lat="41.7382" lon="9.25366">
        <ele>555.7</ele>
      </trkpt>
      <trkpt lat="41.73823" lon="9.25334">
        <ele>581</ele>
      </trkpt>
      <trkpt lat="41.73828" lon="9.25283">
        <ele>566</ele>
      </trkpt>
      <trkpt lat="41.73824" lon="9.25232">
        <ele>557.5</ele>
      </trkpt>
      <trkpt lat="41.73801" lon="9.25223">
        <ele>580</ele>
      </trkpt>
      <trkpt lat="41.73795" lon="9.25218">
        <ele>579</ele>
      </trkpt>
      <trkpt lat="41.73799" lon="9.2521">
        <ele>575</ele>
      </trkpt>
      <trkpt lat="41.73765" lon="9.25193">
        <ele>569</ele>
      </trkpt>
      <trkpt lat="41.73718" lon="9.25196">
        <ele>573</ele>
      </trkpt>
      <trkpt lat="41.7369" lon="9.25197">
        <ele>578</ele>
      </trkpt>
      <trkpt lat="41.73635" lon="9.2515">
        <ele>570</ele>
      </trkpt>
      <trkpt lat="41.73604" lon="9.2514">
        <ele>569</ele>
      </trkpt>
      <trkpt lat="41.73575" lon="9.25128">
        <ele>563</ele>
      </trkpt>
      <trkpt lat="41.73506" lon="9.25113">
        <ele>558</ele>
      </trkpt>
      <trkpt lat="41.73494" lon="9.25104">
        <ele>557</ele>
      </trkpt>
      <trkpt lat="41.73488" lon="9.25058">
        <ele>555</ele>
      </trkpt>
      <trkpt lat="41.73549" lon="9.24908">
        <ele>553</ele>
      </trkpt>
      <trkpt lat="41.73537" lon="9.24871">
        <ele>566</ele>
      </trkpt>
      <trkpt lat="41.73539" lon="9.24819">
        <ele>570</ele>
      </trkpt>
      <trkpt lat="41.73573" lon="9.24754">
        <ele>552.7</ele>
      </trkpt>
      <trkpt lat="41.73601" lon="9.24664">
        <ele>557</ele>
      </trkpt>
      <trkpt lat="41.73605" lon="9.24638">
        <ele>567</ele>
      </trkpt>
      <trkpt lat="41.73589" lon="9.24647">
        <ele>566</ele>
      </trkpt>
      <trkpt lat="41.73551" lon="9.24633">
        <ele>570</ele>
      </trkpt>
      <trkpt lat="41.73514" lon="9.24626">
        <ele>572</ele>
      </trkpt>
      <trkpt lat="41.73491" lon="9.24619">
        <ele>571</ele>
      </trkpt>
      <trkpt lat="41.73437" lon="9.24607">
        <ele>573</ele>
      </trkpt>
      <trkpt lat="41.73431" lon="9.24591">
        <ele>575</ele>
      </trkpt>
      <trkpt lat="41.73434" lon="9.24578">
        <ele>560</ele>
      </trkpt>
      <trkpt lat="41.7348" lon="9.24541">
        <ele>573</ele>
      </trkpt>
      <trkpt lat="41.73511" lon="9.2451">
        <ele>580</ele>
      </trkpt>
      <trkpt lat="41.7353" lon="9.24475">
        <ele>588</ele>
      </trkpt>
      <trkpt lat="41.73578" lon="9.24421">
        <ele>591</ele>
      </trkpt>
      <trkpt lat="41.73634" lon="9.24352">
        <ele>598</ele>
      </trkpt>
      <trkpt lat="41.73645" lon="9.24319">
        <ele>609</ele>
      </trkpt>
      <trkpt lat="41.73729" lon="9.24309">
        <ele>608</ele>
      </trkpt>
      <trkpt lat="41.73751" lon="9.2429">
        <ele>614</ele>
      </trkpt>
      <trkpt lat="41.73774" lon="9.24262">
        <ele>627</ele>
      </trkpt>
      <trkpt lat="41.73804" lon="9.24245">
        <ele>622.5</ele>
      </trkpt>
      <trkpt lat="41.73836" lon="9.24246">
        <ele>634</ele>
      </trkpt>
      <trkpt lat="41.73898" lon="9.24235">
        <ele>648</ele>
      </trkpt>
      <trkpt lat="41.73916" lon="9.24226">
        <ele>648</ele>
      </trkpt>
      <trkpt lat="41.7393" lon="9.24154">
        <ele>648</ele>
      </trkpt>
      <trkpt lat="41.73912" lon="9.24119">
        <ele>654</ele>
      </trkpt>
      <trkpt lat="41.73908" lon="9.24044">
        <ele>650</ele>
      </trkpt>
      <trkpt lat="41.7389" lon="9.23985">
        <ele>664</ele>
      </trkpt>
      <trkpt lat="41.73888" lon="9.23955">
        <ele>675</ele>
      </trkpt>
      <trkpt lat="41.73926" lon="9.23938">
        <ele>676</ele>
      </trkpt>
      <trkpt lat="41.73959" lon="9.23918">
        <ele>679.9</ele>
      </trkpt>
      <trkpt lat="41.73973" lon="9.23883">
        <ele>695</ele>
      </trkpt>
      <trkpt lat="41.73985" lon="9.23827">
        <ele>708</ele>
      </trkpt>
      <trkpt lat="41.73998" lon="9.2381">
        <ele>709</ele>
      </trkpt>
      <trkpt lat="41.74027" lon="9.23774">
        <ele>709.3</ele>
      </trkpt>
      <trkpt lat="41.74006" lon="9.23765">
        <ele>717.3</ele>
      </trkpt>
      <trkpt lat="41.74009" lon="9.23738">
        <ele>722.3</ele>
      </trkpt>
      <trkpt lat="41.74021" lon="9.2365">
        <ele>736.3</ele>
      </trkpt>
      <trkpt lat="41.74017" lon="9.23625">
        <ele>732.2</ele>
      </trkpt>
      <trkpt lat="41.74003" lon="9.23584">
        <ele>749</ele>
      </trkpt>
      <trkpt lat="41.73983" lon="9.23543">
        <ele>751</ele>
      </trkpt>
      <trkpt lat="41.73939" lon="9.23515">
        <ele>756</ele>
      </trkpt>
      <trkpt lat="41.73912" lon="9.235">
        <ele>756</ele>
      </trkpt>
      <trkpt lat="41.73892" lon="9.23491">
        <ele>757</ele>
      </trkpt>
      <trkpt lat="41.73876" lon="9.23488">
        <ele>758</ele>
      </trkpt>
      <trkpt lat="41.73863" lon="9.23478">
        <ele>756</ele>
      </trkpt>
      <trkpt lat="41.73848" lon="9.23476">
        <ele>758</ele>
      </trkpt>
      <trkpt lat="41.73808" lon="9.23454">
        <ele>756</ele>
      </trkpt>
      <trkpt lat="41.73793" lon="9.23443">
        <ele>754</ele>
      </trkpt>
      <trkpt lat="41.7378" lon="9.23438">
        <ele>754</ele>
      </trkpt>
      <trkpt lat="41.73768" lon="9.23388">
        <ele>750.5</ele>
      </trkpt>
      <trkpt lat="41.73762" lon="9.23378">
        <ele>753</ele>
      </trkpt>
      <trkpt lat="41.73753" lon="9.23374">
        <ele>754.8</ele>
      </trkpt>
      <trkpt lat="41.73762" lon="9.23355">
        <ele>752</ele>
      </trkpt>
      <trkpt lat="41.73794" lon="9.23329">
        <ele>759</ele>
      </trkpt>
      <trkpt lat="41.73813" lon="9.23305">
        <ele>764</ele>
      </trkpt>
      <trkpt lat="41.73837" lon="9.23287">
        <ele>764</ele>
      </trkpt>
      <trkpt lat="41.73841" lon="9.23276">
        <ele>766</ele>
      </trkpt>
      <trkpt lat="41.73846" lon="9.2326">
        <ele>767</ele>
      </trkpt>
      <trkpt lat="41.73845" lon="9.23223">
        <ele>773</ele>
      </trkpt>
      <trkpt lat="41.73845" lon="9.23207">
        <ele>776</ele>
      </trkpt>
      <trkpt lat="41.73846" lon="9.23182">
        <ele>779</ele>
      </trkpt>
      <trkpt lat="41.73851" lon="9.23141">
        <ele>783</ele>
      </trkpt>
      <trkpt lat="41.73851" lon="9.23116">
        <ele>787</ele>
      </trkpt>
      <trkpt lat="41.73853" lon="9.23093">
        <ele>789</ele>
      </trkpt>
      <trkpt lat="41.73859" lon="9.23027">
        <ele>797</ele>
      </trkpt>
      <trkpt lat="41.73862" lon="9.23008">
        <ele>800</ele>
      </trkpt>
      <trkpt lat="41.73869" lon="9.22988">
        <ele>801</ele>
      </trkpt>
      <trkpt lat="41.73884" lon="9.22945">
        <ele>804</ele>
      </trkpt>
      <trkpt lat="41.73892" lon="9.22924">
        <ele>805</ele>
      </trkpt>
      <trkpt lat="41.73894" lon="9.22903">
        <ele>809</ele>
      </trkpt>
      <trkpt lat="41.73907" lon="9.22876">
        <ele>810</ele>
      </trkpt>
      <trkpt lat="41.73914" lon="9.22871">
        <ele>810</ele>
      </trkpt>
      <trkpt lat="41.73919" lon="9.22862">
        <ele>811</ele>
      </trkpt>
      <trkpt lat="41.73912" lon="9.22836">
        <ele>815</ele>
      </trkpt>
      <trkpt lat="41.73917" lon="9.22822">
        <ele>823.4</ele>
      </trkpt>
      <trkpt lat="41.73927" lon="9.22836">
        <ele>817</ele>
      </trkpt>
      <trkpt lat="41.73943" lon="9.22843">
        <ele>816</ele>
      </trkpt>
      <trkpt lat="41.73958" lon="9.22854">
        <ele>816</ele>
      </trkpt>
      <trkpt lat="41.73963" lon="9.2284">
        <ele>810</ele>
      </trkpt>
      <trkpt lat="41.7397" lon="9.22861">
        <ele>817</ele>
      </trkpt>
      <trkpt lat="41.73973" lon="9.22877">
        <ele>815</ele>
      </trkpt>
      <trkpt lat="41.73976" lon="9.22897">
        <ele>814</ele>
      </trkpt>
      <trkpt lat="41.73979" lon="9.22928">
        <ele>812</ele>
      </trkpt>
      <trkpt lat="41.73976" lon="9.22944">
        <ele>809</ele>
      </trkpt>
      <trkpt lat="41.73978" lon="9.22954">
        <ele>808</ele>
      </trkpt>
      <trkpt lat="41.73983" lon="9.22991">
        <ele>806</ele>
      </trkpt>
      <trkpt lat="41.73987" lon="9.22998">
        <ele>806</ele>
      </trkpt>
      <trkpt lat="41.73987" lon="9.23011">
        <ele>803</ele>
      </trkpt>
      <trkpt lat="41.7399" lon="9.23045">
        <ele>797</ele>
      </trkpt>
      <trkpt lat="41.74" lon="9.23049">
        <ele>801</ele>
      </trkpt>
      <trkpt lat="41.74014" lon="9.23074">
        <ele>803</ele>
      </trkpt>
      <trkpt lat="41.7403" lon="9.23139">
        <ele>793</ele>
      </trkpt>
      <trkpt lat="41.74035" lon="9.23179">
        <ele>783</ele>
      </trkpt>
      <trkpt lat="41.74049" lon="9.23203">
        <ele>779</ele>
      </trkpt>
      <trkpt lat="41.74089" lon="9.23247">
        <ele>770</ele>
      </trkpt>
      <trkpt lat="41.741" lon="9.23262">
        <ele>764</ele>
      </trkpt>
      <trkpt lat="41.74113" lon="9.23266">
        <ele>766</ele>
      </trkpt>
      <trkpt lat="41.74144" lon="9.23278">
        <ele>770</ele>
      </trkpt>
      <trkpt lat="41.74154" lon="9.23283">
        <ele>772</ele>
      </trkpt>
      <trkpt lat="41.74161" lon="9.23291">
        <ele>770</ele>
      </trkpt>
      <trkpt lat="41.74184" lon="9.23313">
        <ele>763</ele>
      </trkpt>
      <trkpt lat="41.74192" lon="9.23328">
        <ele>757</ele>
      </trkpt>
      <trkpt lat="41.74197" lon="9.23359">
        <ele>741</ele>
      </trkpt>
      <trkpt lat="41.74195" lon="9.23382">
        <ele>729</ele>
      </trkpt>
      <trkpt lat="41.74191" lon="9.23392">
        <ele>724</ele>
      </trkpt>
      <trkpt lat="41.7419" lon="9.23401">
        <ele>720</ele>
      </trkpt>
      <trkpt lat="41.74203" lon="9.23424">
        <ele>713</ele>
      </trkpt>
      <trkpt lat="41.74207" lon="9.23429">
        <ele>712</ele>
      </trkpt>
      <trkpt lat="41.74217" lon="9.23445">
        <ele>708</ele>
      </trkpt>
      <trkpt lat="41.74234" lon="9.23462">
        <ele>700</ele>
      </trkpt>
      <trkpt lat="41.74253" lon="9.23468">
        <ele>697</ele>
      </trkpt>
      <trkpt lat="41.74263" lon="9.2346">
        <ele>700</ele>
      </trkpt>
      <trkpt lat="41.74281" lon="9.23463">
        <ele>702</ele>
      </trkpt>
      <trkpt lat="41.74293" lon="9.23451">
        <ele>706</ele>
      </trkpt>
      <trkpt lat="41.74302" lon="9.23438">
        <ele>710</ele>
      </trkpt>
      <trkpt lat="41.74319" lon="9.23459">
        <ele>711</ele>
      </trkpt>
      <trkpt lat="41.74326" lon="9.23467">
        <ele>718</ele>
      </trkpt>
      <trkpt lat="41.74318" lon="9.23476">
        <ele>714</ele>
      </trkpt>
      <trkpt lat="41.7432" lon="9.23503">
        <ele>725</ele>
      </trkpt>
      <trkpt lat="41.74319" lon="9.23508">
        <ele>725</ele>
      </trkpt>
      <trkpt lat="41.74323" lon="9.23521">
        <ele>733</ele>
      </trkpt>
      <trkpt lat="41.74308" lon="9.23554">
        <ele>723</ele>
      </trkpt>
      <trkpt lat="41.74306" lon="9.23575">
        <ele>724</ele>
      </trkpt>
      <trkpt lat="41.74294" lon="9.23588">
        <ele>709.2</ele>
      </trkpt>
      <trkpt lat="41.74283" lon="9.23623">
        <ele>707</ele>
      </trkpt>
      <trkpt lat="41.74278" lon="9.23633">
        <ele>694</ele>
      </trkpt>
      <trkpt lat="41.74277" lon="9.2363">
        <ele>703</ele>
      </trkpt>
      <trkpt lat="41.74302" lon="9.23647">
        <ele>708</ele>
      </trkpt>
      <trkpt lat="41.74309" lon="9.23658">
        <ele>708</ele>
      </trkpt>
      <trkpt lat="41.74321" lon="9.23679">
        <ele>707</ele>
      </trkpt>
      <trkpt lat="41.74341" lon="9.23697">
        <ele>711</ele>
      </trkpt>
      <trkpt lat="41.74351" lon="9.23711">
        <ele>712</ele>
      </trkpt>
      <trkpt lat="41.7436" lon="9.23729">
        <ele>710</ele>
      </trkpt>
      <trkpt lat="41.74376" lon="9.23744">
        <ele>711</ele>
      </trkpt>
      <trkpt lat="41.74382" lon="9.23753">
        <ele>710</ele>
      </trkpt>
      <trkpt lat="41.74396" lon="9.23759">
        <ele>717</ele>
      </trkpt>
      <trkpt lat="41.74414" lon="9.23777">
        <ele>725</ele>
      </trkpt>
      <trkpt lat="41.74413" lon="9.23788">
        <ele>724</ele>
      </trkpt>
      <trkpt lat="41.74415" lon="9.23803">
        <ele>724</ele>
      </trkpt>
      <trkpt lat="41.74415" lon="9.23816">
        <ele>724</ele>
      </trkpt>
      <trkpt lat="41.7442" lon="9.23827">
        <ele>728</ele>
      </trkpt>
      <trkpt lat="41.74422" lon="9.23849">
        <ele>729</ele>
      </trkpt>
      <trkpt lat="41.74425" lon="9.23876">
        <ele>732</ele>
      </trkpt>
      <trkpt lat="41.74428" lon="9.23883">
        <ele>734</ele>
      </trkpt>
      <trkpt lat="41.74436" lon="9.23885">
        <ele>743</ele>
      </trkpt>
      <trkpt lat="41.74442" lon="9.2391">
        <ele>749</ele>
      </trkpt>
      <trkpt lat="41.74448" lon="9.23921">
        <ele>753</ele>
      </trkpt>
      <trkpt lat="41.74451" lon="9.23926">
        <ele>756</ele>
      </trkpt>
      <trkpt lat="41.74456" lon="9.23949">
        <ele>752.7</ele>
      </trkpt>
      <trkpt lat="41.74464" lon="9.23966">
        <ele>757.2</ele>
      </trkpt>
      <trkpt lat="41.74472" lon="9.23968">
        <ele>767</ele>
      </trkpt>
      <trkpt lat="41.74476" lon="9.23993">
        <ele>767</ele>
      </trkpt>
      <trkpt lat="41.7448" lon="9.24009">
        <ele>767</ele>
      </trkpt>
      <trkpt lat="41.74484" lon="9.24026">
        <ele>770</ele>
      </trkpt>
      <trkpt lat="41.74502" lon="9.24049">
        <ele>781</ele>
      </trkpt>
      <trkpt lat="41.7451" lon="9.24054">
        <ele>785</ele>
      </trkpt>
      <trkpt lat="41.74526" lon="9.2409">
        <ele>788</ele>
      </trkpt>
      <trkpt lat="41.74538" lon="9.24135">
        <ele>787</ele>
      </trkpt>
      <trkpt lat="41.74547" lon="9.24145">
        <ele>794</ele>
      </trkpt>
      <trkpt lat="41.74547" lon="9.24159">
        <ele>789</ele>
      </trkpt>
      <trkpt lat="41.74543" lon="9.24177">
        <ele>783</ele>
      </trkpt>
      <trkpt lat="41.74548" lon="9.24185">
        <ele>781</ele>
      </trkpt>
      <trkpt lat="41.74553" lon="9.24214">
        <ele>767</ele>
      </trkpt>
      <trkpt lat="41.7457" lon="9.24218">
        <ele>763</ele>
      </trkpt>
      <trkpt lat="41.74575" lon="9.24219">
        <ele>762</ele>
      </trkpt>
      <trkpt lat="41.74582" lon="9.24221">
        <ele>762</ele>
      </trkpt>
      <trkpt lat="41.74599" lon="9.24223">
        <ele>763</ele>
      </trkpt>
      <trkpt lat="41.74606" lon="9.24233">
        <ele>759</ele>
      </trkpt>
      <trkpt lat="41.74612" lon="9.24252">
        <ele>752</ele>
      </trkpt>
      <trkpt lat="41.7462" lon="9.24283">
        <ele>741</ele>
      </trkpt>
      <trkpt lat="41.7463" lon="9.24295">
        <ele>737</ele>
      </trkpt>
      <trkpt lat="41.74636" lon="9.24307">
        <ele>733</ele>
      </trkpt>
      <trkpt lat="41.7465" lon="9.24313">
        <ele>731</ele>
      </trkpt>
      <trkpt lat="41.74661" lon="9.24319">
        <ele>728</ele>
      </trkpt>
      <trkpt lat="41.7466" lon="9.24295">
        <ele>734</ele>
      </trkpt>
      <trkpt lat="41.74671" lon="9.24291">
        <ele>731</ele>
      </trkpt>
      <trkpt lat="41.74687" lon="9.24281">
        <ele>725</ele>
      </trkpt>
      <trkpt lat="41.74702" lon="9.24275">
        <ele>719</ele>
      </trkpt>
      <trkpt lat="41.74713" lon="9.24276">
        <ele>714</ele>
      </trkpt>
      <trkpt lat="41.74724" lon="9.24287">
        <ele>708</ele>
      </trkpt>
      <trkpt lat="41.74736" lon="9.24287">
        <ele>703</ele>
      </trkpt>
      <trkpt lat="41.74739" lon="9.24286">
        <ele>702</ele>
      </trkpt>
      <trkpt lat="41.74748" lon="9.24304">
        <ele>695</ele>
      </trkpt>
      <trkpt lat="41.74745" lon="9.24318">
        <ele>695</ele>
      </trkpt>
      <trkpt lat="41.74751" lon="9.24328">
        <ele>690</ele>
      </trkpt>
      <trkpt lat="41.74772" lon="9.24335">
        <ele>680</ele>
      </trkpt>
      <trkpt lat="41.74768" lon="9.24342">
        <ele>679</ele>
      </trkpt>
      <trkpt lat="41.74783" lon="9.24341">
        <ele>672</ele>
      </trkpt>
      <trkpt lat="41.74793" lon="9.24374">
        <ele>650</ele>
      </trkpt>
      <trkpt lat="41.74801" lon="9.2438">
        <ele>645</ele>
      </trkpt>
      <trkpt lat="41.74811" lon="9.24381">
        <ele>650</ele>
      </trkpt>
      <trkpt lat="41.74829" lon="9.24394">
        <ele>646</ele>
      </trkpt>
      <trkpt lat="41.74837" lon="9.244">
        <ele>644</ele>
      </trkpt>
      <trkpt lat="41.74841" lon="9.24411">
        <ele>644</ele>
      </trkpt>
      <trkpt lat="41.74859" lon="9.24429">
        <ele>643</ele>
      </trkpt>
      <trkpt lat="41.74865" lon="9.24439">
        <ele>639</ele>
      </trkpt>
      <trkpt lat="41.74871" lon="9.24448">
        <ele>634</ele>
      </trkpt>
      <trkpt lat="41.74869" lon="9.24462">
        <ele>630</ele>
      </trkpt>
      <trkpt lat="41.74866" lon="9.24473">
        <ele>630</ele>
      </trkpt>
      <trkpt lat="41.74876" lon="9.24481">
        <ele>628</ele>
      </trkpt>
      <trkpt lat="41.74896" lon="9.24479">
        <ele>625</ele>
      </trkpt>
      <trkpt lat="41.74891" lon="9.24491">
        <ele>624</ele>
      </trkpt>
      <trkpt lat="41.74883" lon="9.24494">
        <ele>623</ele>
      </trkpt>
      <trkpt lat="41.74889" lon="9.24505">
        <ele>617</ele>
      </trkpt>
      <trkpt lat="41.74899" lon="9.2452">
        <ele>610</ele>
      </trkpt>
      <trkpt lat="41.74893" lon="9.24527">
        <ele>607</ele>
      </trkpt>
      <trkpt lat="41.74897" lon="9.24545">
        <ele>599</ele>
      </trkpt>
      <trkpt lat="41.74888" lon="9.24553">
        <ele>596</ele>
      </trkpt>
      <trkpt lat="41.74897" lon="9.24562">
        <ele>593</ele>
      </trkpt>
      <trkpt lat="41.74918" lon="9.24569">
        <ele>589</ele>
      </trkpt>
      <trkpt lat="41.74921" lon="9.2458">
        <ele>584</ele>
      </trkpt>
      <trkpt lat="41.74913" lon="9.24589">
        <ele>582</ele>
      </trkpt>
      <trkpt lat="41.74897" lon="9.24597">
        <ele>579</ele>
      </trkpt>
      <trkpt lat="41.74887" lon="9.24597">
        <ele>579</ele>
      </trkpt>
      <trkpt lat="41.74877" lon="9.24606">
        <ele>576</ele>
      </trkpt>
      <trkpt lat="41.74854" lon="9.24621">
        <ele>568</ele>
      </trkpt>
      <trkpt lat="41.74857" lon="9.24621">
        <ele>568</ele>
      </trkpt>
      <trkpt lat="41.74854" lon="9.24632">
        <ele>564</ele>
      </trkpt>
      <trkpt lat="41.74828" lon="9.24656">
        <ele>553</ele>
      </trkpt>
      <trkpt lat="41.74811" lon="9.2464">
        <ele>557</ele>
      </trkpt>
      <trkpt lat="41.74804" lon="9.24674">
        <ele>550</ele>
      </trkpt>
      <trkpt lat="41.74763" lon="9.24734">
        <ele>536</ele>
      </trkpt>
      <trkpt lat="41.74729" lon="9.24767">
        <ele>534</ele>
      </trkpt>
      <trkpt lat="41.74724" lon="9.24758">
        <ele>536</ele>
      </trkpt>
      <trkpt lat="41.74706" lon="9.24792">
        <ele>532</ele>
      </trkpt>
      <trkpt lat="41.74699" lon="9.24815">
        <ele>528</ele>
      </trkpt>
      <trkpt lat="41.7468" lon="9.24842">
        <ele>523</ele>
      </trkpt>
      <trkpt lat="41.7463" lon="9.2484">
        <ele>511</ele>
      </trkpt>
      <trkpt lat="41.74614" lon="9.24833">
        <ele>508</ele>
      </trkpt>
      <trkpt lat="41.74601" lon="9.24834">
        <ele>507</ele>
      </trkpt>
      <trkpt lat="41.7458" lon="9.24806">
        <ele>506</ele>
      </trkpt>
      <trkpt lat="41.74567" lon="9.24803">
        <ele>501</ele>
      </trkpt>
      <trkpt lat="41.74563" lon="9.24825">
        <ele>495</ele>
      </trkpt>
      <trkpt lat="41.74519" lon="9.24814">
        <ele>485</ele>
      </trkpt>
      <trkpt lat="41.74515" lon="9.24807">
        <ele>484</ele>
      </trkpt>
      <trkpt lat="41.74497" lon="9.24808">
        <ele>481</ele>
      </trkpt>
      <trkpt lat="41.7447" lon="9.24804">
        <ele>478</ele>
      </trkpt>
      <trkpt lat="41.74451" lon="9.24819">
        <ele>477.7</ele>
      </trkpt>
      <trkpt lat="41.74428" lon="9.2482">
        <ele>474.3</ele>
      </trkpt>
      <trkpt lat="41.74397" lon="9.24837">
        <ele>471</ele>
      </trkpt>
      <trkpt lat="41.74375" lon="9.24849">
        <ele>466</ele>
      </trkpt>
      <trkpt lat="41.74335" lon="9.24878">
        <ele>459</ele>
      </trkpt>
      <trkpt lat="41.74309" lon="9.24905">
        <ele>456</ele>
      </trkpt>
      <trkpt lat="41.74308" lon="9.24911">
        <ele>457</ele>
      </trkpt>
      <trkpt lat="41.74301" lon="9.24917">
        <ele>455</ele>
      </trkpt>
      <trkpt lat="41.74276" lon="9.2495">
        <ele>449</ele>
      </trkpt>
      <trkpt lat="41.74276" lon="9.24978">
        <ele>447.4</ele>
      </trkpt>
      <trkpt lat="41.74272" lon="9.25">
        <ele>451</ele>
      </trkpt>
      <trkpt lat="41.74264" lon="9.2503">
        <ele>446</ele>
      </trkpt>
      <trkpt lat="41.74266" lon="9.25049">
        <ele>446</ele>
      </trkpt>
      <trkpt lat="41.74262" lon="9.25063">
        <ele>443</ele>
      </trkpt>
      <trkpt lat="41.74253" lon="9.25113">
        <ele>432</ele>
      </trkpt>
      <trkpt lat="41.74248" lon="9.25122">
        <ele>429</ele>
      </trkpt>
      <trkpt lat="41.74248" lon="9.25131">
        <ele>427</ele>
      </trkpt>
      <trkpt lat="41.74247" lon="9.25157">
        <ele>421</ele>
      </trkpt>
      <trkpt lat="41.74244" lon="9.2517">
        <ele>417</ele>
      </trkpt>
      <trkpt lat="41.74245" lon="9.25189">
        <ele>414</ele>
      </trkpt>
      <trkpt lat="41.7425" lon="9.25198">
        <ele>416.1</ele>
      </trkpt>
      <trkpt lat="41.74243" lon="9.25215">
        <ele>409.1</ele>
      </trkpt>
      <trkpt lat="41.74238" lon="9.25239">
        <ele>401.6</ele>
      </trkpt>
      <trkpt lat="41.74237" lon="9.25254">
        <ele>399.6</ele>
      </trkpt>
      <trkpt lat="41.74241" lon="9.25256">
        <ele>399.3</ele>
      </trkpt>
      <trkpt lat="41.74245" lon="9.25267">
        <ele>396.3</ele>
      </trkpt>
      <trkpt lat="41.74251" lon="9.2528">
        <ele>392.2</ele>
      </trkpt>
      <trkpt lat="41.74249" lon="9.25289">
        <ele>392.4</ele>
      </trkpt>
      <trkpt lat="41.74251" lon="9.25297">
        <ele>392.2</ele>
      </trkpt>
      <trkpt lat="41.74254" lon="9.25307">
        <ele>392.8</ele>
      </trkpt>
      <trkpt lat="41.74264" lon="9.25301">
        <ele>394.4</ele>
      </trkpt>
      <trkpt lat="41.74272" lon="9.25303">
        <ele>395.6</ele>
      </trkpt>
      <trkpt lat="41.7428" lon="9.25314">
        <ele>394.1</ele>
      </trkpt>
      <trkpt lat="41.74289" lon="9.25307">
        <ele>397.9</ele>
      </trkpt>
      <trkpt lat="41.743" lon="9.25307">
        <ele>400.1</ele>
      </trkpt>
      <trkpt lat="41.74308" lon="9.25303">
        <ele>402.3</ele>
      </trkpt>
      <trkpt lat="41.74326" lon="9.25309">
        <ele>410</ele>
      </trkpt>
      <trkpt lat="41.74348" lon="9.25315">
        <ele>413</ele>
      </trkpt>
      <trkpt lat="41.74354" lon="9.25327">
        <ele>411</ele>
      </trkpt>
      <trkpt lat="41.74369" lon="9.25334">
        <ele>412</ele>
      </trkpt>
      <trkpt lat="41.74398" lon="9.25372">
        <ele>407</ele>
      </trkpt>
      <trkpt lat="41.74418" lon="9.25381">
        <ele>411</ele>
      </trkpt>
      <trkpt lat="41.74424" lon="9.25385">
        <ele>412</ele>
      </trkpt>
      <trkpt lat="41.7444" lon="9.25417">
        <ele>413</ele>
      </trkpt>
      <trkpt lat="41.74443" lon="9.25438">
        <ele>411</ele>
      </trkpt>
      <trkpt lat="41.74449" lon="9.25456">
        <ele>411</ele>
      </trkpt>
      <trkpt lat="41.74476" lon="9.255">
        <ele>414</ele>
      </trkpt>
      <trkpt lat="41.7449" lon="9.25518">
        <ele>418</ele>
      </trkpt>
      <trkpt lat="41.7449" lon="9.25535">
        <ele>415</ele>
      </trkpt>
      <trkpt lat="41.74505" lon="9.25576">
        <ele>409.6</ele>
      </trkpt>
      <trkpt lat="41.74517" lon="9.25594">
        <ele>409.7</ele>
      </trkpt>
      <trkpt lat="41.74524" lon="9.25615">
        <ele>405.9</ele>
      </trkpt>
      <trkpt lat="41.74555" lon="9.25646">
        <ele>419</ele>
      </trkpt>
      <trkpt lat="41.74574" lon="9.25657">
        <ele>424</ele>
      </trkpt>
      <trkpt lat="41.74584" lon="9.25706">
        <ele>413</ele>
      </trkpt>
      <trkpt lat="41.7461" lon="9.25728">
        <ele>413</ele>
      </trkpt>
      <trkpt lat="41.74626" lon="9.25738">
        <ele>411</ele>
      </trkpt>
      <trkpt lat="41.74652" lon="9.25741">
        <ele>411</ele>
      </trkpt>
      <trkpt lat="41.74671" lon="9.25767">
        <ele>401</ele>
      </trkpt>
      <trkpt lat="41.74685" lon="9.25788">
        <ele>395</ele>
      </trkpt>
      <trkpt lat="41.74693" lon="9.25792">
        <ele>395</ele>
      </trkpt>
      <trkpt lat="41.74709" lon="9.25784">
        <ele>409.8</ele>
      </trkpt>
      <trkpt lat="41.74705" lon="9.25803">
        <ele>403</ele>
      </trkpt>
      <trkpt lat="41.7472" lon="9.25824">
        <ele>405</ele>
      </trkpt>
      <trkpt lat="41.74724" lon="9.2586">
        <ele>400</ele>
      </trkpt>
      <trkpt lat="41.7473" lon="9.25888">
        <ele>395</ele>
      </trkpt>
      <trkpt lat="41.74737" lon="9.25938">
        <ele>383</ele>
      </trkpt>
      <trkpt lat="41.74765" lon="9.25966">
        <ele>382.5</ele>
      </trkpt>
      <trkpt lat="41.74772" lon="9.25982">
        <ele>385</ele>
      </trkpt>
      <trkpt lat="41.74771" lon="9.26005">
        <ele>377</ele>
      </trkpt>
      <trkpt lat="41.748" lon="9.26059">
        <ele>373</ele>
      </trkpt>
      <trkpt lat="41.74799" lon="9.26072">
        <ele>369</ele>
      </trkpt>
      <trkpt lat="41.74807" lon="9.26093">
        <ele>367</ele>
      </trkpt>
      <trkpt lat="41.74803" lon="9.26114">
        <ele>351.9</ele>
      </trkpt>
      <trkpt lat="41.74826" lon="9.2616">
        <ele>360</ele>
      </trkpt>
      <trkpt lat="41.7482" lon="9.26189">
        <ele>352</ele>
      </trkpt>
      <trkpt lat="41.74825" lon="9.26229">
        <ele>343</ele>
      </trkpt>
      <trkpt lat="41.74843" lon="9.26244">
        <ele>341</ele>
      </trkpt>
      <trkpt lat="41.74847" lon="9.26267">
        <ele>336</ele>
      </trkpt>
      <trkpt lat="41.74852" lon="9.26276">
        <ele>335</ele>
      </trkpt>
      <trkpt lat="41.74845" lon="9.26318">
        <ele>332.4</ele>
      </trkpt>
      <trkpt lat="41.74841" lon="9.26328">
        <ele>335</ele>
      </trkpt>
      <trkpt lat="41.74843" lon="9.2634">
        <ele>336</ele>
      </trkpt>
      <trkpt lat="41.7483" lon="9.2638">
        <ele>333</ele>
      </trkpt>
      <trkpt lat="41.74821" lon="9.26389">
        <ele>327.7</ele>
      </trkpt>
      <trkpt lat="41.74815" lon="9.26408">
        <ele>326.7</ele>
      </trkpt>
      <trkpt lat="41.74796" lon="9.2644">
        <ele>322.8</ele>
      </trkpt>
      <trkpt lat="41.74798" lon="9.26455">
        <ele>322.8</ele>
      </trkpt>
      <trkpt lat="41.74786" lon="9.26454">
        <ele>320.1</ele>
      </trkpt>
      <trkpt lat="41.74777" lon="9.26494">
        <ele>316.3</ele>
      </trkpt>
      <trkpt lat="41.74779" lon="9.26546">
        <ele>313.6</ele>
      </trkpt>
      <trkpt lat="41.748" lon="9.26596">
        <ele>313.8</ele>
      </trkpt>
      <trkpt lat="41.74805" lon="9.26641">
        <ele>311.6</ele>
      </trkpt>
      <trkpt lat="41.74818" lon="9.2667">
        <ele>310.9</ele>
      </trkpt>
      <trkpt lat="41.74821" lon="9.26684">
        <ele>312.6</ele>
      </trkpt>
      <trkpt lat="41.74807" lon="9.26698">
        <ele>310.6</ele>
      </trkpt>
      <trkpt lat="41.74799" lon="9.26709">
        <ele>309.2</ele>
      </trkpt>
      <trkpt lat="41.74794" lon="9.26728">
        <ele>308.1</ele>
      </trkpt>
      <trkpt lat="41.74811" lon="9.26827">
        <ele>307.3</ele>
      </trkpt>
      <trkpt lat="41.74802" lon="9.26862">
        <ele>304.2</ele>
      </trkpt>
      <trkpt lat="41.74789" lon="9.26878">
        <ele>304.3</ele>
      </trkpt>
      <trkpt lat="41.74763" lon="9.26907">
        <ele>301</ele>
      </trkpt>
      <trkpt lat="41.74758" lon="9.26923">
        <ele>303.1</ele>
      </trkpt>
      <trkpt lat="41.74745" lon="9.26938">
        <ele>299.9</ele>
      </trkpt>
      <trkpt lat="41.74726" lon="9.26973">
        <ele>299.6</ele>
      </trkpt>
      <trkpt lat="41.74716" lon="9.2699">
        <ele>299.2</ele>
      </trkpt>
      <trkpt lat="41.74708" lon="9.27013">
        <ele>297.9</ele>
      </trkpt>
      <trkpt lat="41.74718" lon="9.27056">
        <ele>297.2</ele>
      </trkpt>
      <trkpt lat="41.74731" lon="9.27091">
        <ele>298.1</ele>
      </trkpt>
      <trkpt lat="41.74736" lon="9.27114">
        <ele>295.4</ele>
      </trkpt>
      <trkpt lat="41.74744" lon="9.27187">
        <ele>293.4</ele>
      </trkpt>
      <trkpt lat="41.74744" lon="9.27211">
        <ele>293.1</ele>
      </trkpt>
      <trkpt lat="41.74734" lon="9.27235">
        <ele>290.8</ele>
      </trkpt>
      <trkpt lat="41.74735" lon="9.27305">
        <ele>290.5</ele>
      </trkpt>
      <trkpt lat="41.74738" lon="9.27344">
        <ele>289.6</ele>
      </trkpt>
      <trkpt lat="41.74754" lon="9.27422">
        <ele>289.6</ele>
      </trkpt>
      <trkpt lat="41.74749" lon="9.27454">
        <ele>285.9</ele>
      </trkpt>
      <trkpt lat="41.74736" lon="9.27483">
        <ele>276.6</ele>
      </trkpt>
      <trkpt lat="41.74729" lon="9.27517">
        <ele>274.1</ele>
      </trkpt>
      <trkpt lat="41.74711" lon="9.27533">
        <ele>265.7</ele>
      </trkpt>
      <trkpt lat="41.74697" lon="9.27551">
        <ele>257.5</ele>
      </trkpt>
      <trkpt lat="41.74687" lon="9.27567">
        <ele>254.7</ele>
      </trkpt>
      <trkpt lat="41.74666" lon="9.27585">
        <ele>257.3</ele>
      </trkpt>
      <trkpt lat="41.74663" lon="9.276">
        <ele>259.5</ele>
      </trkpt>
      <trkpt lat="41.74674" lon="9.27635">
        <ele>258</ele>
      </trkpt>
      <trkpt lat="41.74671" lon="9.27662">
        <ele>259.1</ele>
      </trkpt>
      <trkpt lat="41.74655" lon="9.27675">
        <ele>260.7</ele>
      </trkpt>
      <trkpt lat="41.74641" lon="9.27664">
        <ele>261.1</ele>
      </trkpt>
      <trkpt lat="41.74633" lon="9.27667">
        <ele>261</ele>
      </trkpt>
      <trkpt lat="41.74628" lon="9.27685">
        <ele>260.3</ele>
      </trkpt>
      <trkpt lat="41.74626" lon="9.27714">
        <ele>259.3</ele>
      </trkpt>
      <trkpt lat="41.74618" lon="9.27733">
        <ele>258.9</ele>
      </trkpt>
      <trkpt lat="41.74588" lon="9.27761">
        <ele>260.1</ele>
      </trkpt>
      <trkpt lat="41.74567" lon="9.27692">
        <ele>266.5</ele>
      </trkpt>
      <trkpt lat="41.74551" lon="9.27688">
        <ele>269.9</ele>
      </trkpt>
      <trkpt lat="41.74538" lon="9.27746">
        <ele>278.4</ele>
      </trkpt>
      <trkpt lat="41.74529" lon="9.27813">
        <ele>283.2</ele>
      </trkpt>
      <trkpt lat="41.74513" lon="9.27886">
        <ele>292.3</ele>
      </trkpt>
      <trkpt lat="41.74481" lon="9.27965">
        <ele>295</ele>
      </trkpt>
      <trkpt lat="41.74424" lon="9.27976">
        <ele>296.9</ele>
      </trkpt>
      <trkpt lat="41.74402" lon="9.27995">
        <ele>299</ele>
      </trkpt>
      <trkpt lat="41.74383" lon="9.28036">
        <ele>301.2</ele>
      </trkpt>
      <trkpt lat="41.74375" lon="9.28066">
        <ele>303</ele>
      </trkpt>
      <trkpt lat="41.74405" lon="9.28117">
        <ele>303</ele>
      </trkpt>
      <trkpt lat="41.74426" lon="9.28137">
        <ele>303.1</ele>
      </trkpt>
      <trkpt lat="41.74431" lon="9.28152">
        <ele>304.8</ele>
      </trkpt>
      <trkpt lat="41.74475" lon="9.28156">
        <ele>296.5</ele>
      </trkpt>
      <trkpt lat="41.74505" lon="9.28169">
        <ele>293.7</ele>
      </trkpt>
      <trkpt lat="41.74528" lon="9.28188">
        <ele>291.1</ele>
      </trkpt>
      <trkpt lat="41.74543" lon="9.28186">
        <ele>286</ele>
      </trkpt>
      <trkpt lat="41.74567" lon="9.28196">
        <ele>278.9</ele>
      </trkpt>
      <trkpt lat="41.74584" lon="9.28188">
        <ele>271.9</ele>
      </trkpt>
      <trkpt lat="41.74599" lon="9.28183">
        <ele>265.6</ele>
      </trkpt>
      <trkpt lat="41.74625" lon="9.28186">
        <ele>255.9</ele>
      </trkpt>
      <trkpt lat="41.74647" lon="9.28176">
        <ele>248.5</ele>
      </trkpt>
      <trkpt lat="41.74647" lon="9.28201">
        <ele>248</ele>
      </trkpt>
      <trkpt lat="41.74657" lon="9.28244">
        <ele>243.7</ele>
      </trkpt>
      <trkpt lat="41.74672" lon="9.2827">
        <ele>238</ele>
      </trkpt>
      <trkpt lat="41.74677" lon="9.28304">
        <ele>235.8</ele>
      </trkpt>
      <trkpt lat="41.74681" lon="9.28349">
        <ele>233.2</ele>
      </trkpt>
      <trkpt lat="41.74704" lon="9.28358">
        <ele>231.9</ele>
      </trkpt>
      <trkpt lat="41.74709" lon="9.28388">
        <ele>231.3</ele>
      </trkpt>
      <trkpt lat="41.74723" lon="9.28386">
        <ele>233.6</ele>
      </trkpt>
      <trkpt lat="41.74725" lon="9.2836">
        <ele>238.7</ele>
      </trkpt>
      <trkpt lat="41.7475" lon="9.28382">
        <ele>247.7</ele>
      </trkpt>
      <trkpt lat="41.74744" lon="9.28338">
        <ele>250.5</ele>
      </trkpt>
      <trkpt lat="41.74741" lon="9.28318">
        <ele>250.2</ele>
      </trkpt>
      <trkpt lat="41.74753" lon="9.28288">
        <ele>256</ele>
      </trkpt>
      <trkpt lat="41.74792" lon="9.28261">
        <ele>266.3</ele>
      </trkpt>
      <trkpt lat="41.74803" lon="9.28226">
        <ele>271</ele>
      </trkpt>
      <trkpt lat="41.74822" lon="9.28223">
        <ele>274.3</ele>
      </trkpt>
      <trkpt lat="41.74879" lon="9.28266">
        <ele>283.4</ele>
      </trkpt>
      <trkpt lat="41.74908" lon="9.28286">
        <ele>287</ele>
      </trkpt>
      <trkpt lat="41.74883" lon="9.28308">
        <ele>287.2</ele>
      </trkpt>
      <trkpt lat="41.74885" lon="9.28323">
        <ele>287.1</ele>
      </trkpt>
      <trkpt lat="41.74878" lon="9.28336">
        <ele>287.1</ele>
      </trkpt>
      <trkpt lat="41.7488" lon="9.28351">
        <ele>285.6</ele>
      </trkpt>
      <trkpt lat="41.74872" lon="9.2837">
        <ele>282.6</ele>
      </trkpt>
      <trkpt lat="41.74858" lon="9.28398">
        <ele>275.2</ele>
      </trkpt>
      <trkpt lat="41.74852" lon="9.28423">
        <ele>269.6</ele>
      </trkpt>
      <trkpt lat="41.74863" lon="9.28435">
        <ele>269.3</ele>
      </trkpt>
      <trkpt lat="41.7491" lon="9.28447">
        <ele>276</ele>
        <time>2022-02-09T11:24:39Z</time>
      </trkpt>
      <trkpt lat="41.74903" lon="9.28453">
        <ele>274.9</ele>
        <time>2022-02-09T11:23:38Z</time>
      </trkpt>
      <trkpt lat="41.74907" lon="9.28464">
        <ele>274.4</ele>
        <time>2022-02-09T11:22:22Z</time>
      </trkpt>
      <trkpt lat="41.74908" lon="9.28477">
        <ele>252</ele>
        <time>2022-02-09T11:22:08Z</time>
      </trkpt>
      <trkpt lat="41.74915" lon="9.28496">
        <ele>251</ele>
        <time>2022-02-09T11:21:31Z</time>
      </trkpt>
      <trkpt lat="41.74923" lon="9.28511">
        <ele>250</ele>
        <time>2022-02-09T11:21:06Z</time>
      </trkpt>
      <trkpt lat="41.74926" lon="9.28521">
        <ele>250</ele>
        <time>2022-02-09T11:20:57Z</time>
      </trkpt>
      <trkpt lat="41.74921" lon="9.28569">
        <ele>250</ele>
        <time>2022-02-09T11:20:21Z</time>
      </trkpt>
      <trkpt lat="41.74912" lon="9.28584">
        <ele>249</ele>
        <time>2022-02-09T11:19:31Z</time>
      </trkpt>
      <trkpt lat="41.74892" lon="9.28596">
        <ele>249</ele>
        <time>2022-02-09T11:18:31Z</time>
      </trkpt>
      <trkpt lat="41.74886" lon="9.28601">
        <ele>249</ele>
        <time>2022-02-09T11:18:22Z</time>
      </trkpt>
      <trkpt lat="41.74886" lon="9.28622">
        <ele>249</ele>
        <time>2022-02-09T11:17:46Z</time>
      </trkpt>
      <trkpt lat="41.7488" lon="9.28646">
        <ele>249</ele>
        <time>2022-02-09T11:17:30Z</time>
      </trkpt>
      <trkpt lat="41.74872" lon="9.28659">
        <ele>249</ele>
        <time>2022-02-09T11:17:06Z</time>
      </trkpt>
      <trkpt lat="41.74875" lon="9.28668">
        <ele>249</ele>
        <time>2022-02-09T11:17:01Z</time>
      </trkpt>
      <trkpt lat="41.74865" lon="9.28683">
        <ele>249</ele>
        <time>2022-02-09T11:16:36Z</time>
      </trkpt>
      <trkpt lat="41.74851" lon="9.28718">
        <ele>248</ele>
        <time>2022-02-09T11:16:09Z</time>
      </trkpt>
      <trkpt lat="41.74854" lon="9.28735">
        <ele>248</ele>
        <time>2022-02-09T11:15:38Z</time>
      </trkpt>
      <trkpt lat="41.74849" lon="9.28745">
        <ele>248</ele>
        <time>2022-02-09T11:15:24Z</time>
      </trkpt>
      <trkpt lat="41.74815" lon="9.28747">
        <ele>247</ele>
        <time>2022-02-09T11:14:43Z</time>
      </trkpt>
      <trkpt lat="41.74822" lon="9.28758">
        <ele>247</ele>
        <time>2022-02-09T11:14:05Z</time>
      </trkpt>
      <trkpt lat="41.74815" lon="9.28747">
        <ele>246</ele>
        <time>2022-02-09T11:12:46Z</time>
      </trkpt>
      <trkpt lat="41.74809" lon="9.28751">
        <ele>246</ele>
        <time>2022-02-09T11:10:16Z</time>
      </trkpt>
      <trkpt lat="41.7479" lon="9.28745">
        <ele>246</ele>
        <time>2022-02-09T11:09:49Z</time>
      </trkpt>
      <trkpt lat="41.74777" lon="9.28751">
        <ele>246</ele>
        <time>2022-02-09T11:09:30Z</time>
      </trkpt>
      <trkpt lat="41.74762" lon="9.28761">
        <ele>246</ele>
        <time>2022-02-09T11:09:02Z</time>
      </trkpt>
      <trkpt lat="41.74747" lon="9.28767">
        <ele>246</ele>
        <time>2022-02-09T11:08:41Z</time>
      </trkpt>
      <trkpt lat="41.7474" lon="9.28767">
        <ele>246</ele>
        <time>2022-02-09T11:08:35Z</time>
      </trkpt>
      <trkpt lat="41.7473" lon="9.28773">
        <ele>246</ele>
        <time>2022-02-09T11:08:21Z</time>
      </trkpt>
      <trkpt lat="41.74722" lon="9.28783">
        <ele>246</ele>
        <time>2022-02-09T11:07:35Z</time>
      </trkpt>
      <trkpt lat="41.74716" lon="9.28799">
        <ele>246</ele>
        <time>2022-02-09T11:07:04Z</time>
      </trkpt>
      <trkpt lat="41.74709" lon="9.28808">
        <ele>245</ele>
        <time>2022-02-09T11:06:53Z</time>
      </trkpt>
      <trkpt lat="41.74694" lon="9.2881">
        <ele>245</ele>
        <time>2022-02-09T11:06:00Z</time>
      </trkpt>
      <trkpt lat="41.74683" lon="9.28822">
        <ele>245</ele>
        <time>2022-02-09T11:05:34Z</time>
      </trkpt>
      <trkpt lat="41.74664" lon="9.28841">
        <ele>245</ele>
        <time>2022-02-09T11:05:03Z</time>
      </trkpt>
      <trkpt lat="41.74656" lon="9.28853">
        <ele>245</ele>
        <time>2022-02-09T11:04:52Z</time>
      </trkpt>
      <trkpt lat="41.74643" lon="9.28868">
        <ele>246</ele>
        <time>2022-02-09T11:04:36Z</time>
      </trkpt>
      <trkpt lat="41.74633" lon="9.28877">
        <ele>246</ele>
        <time>2022-02-09T11:04:27Z</time>
      </trkpt>
      <trkpt lat="41.74624" lon="9.28905">
        <ele>246</ele>
        <time>2022-02-09T11:03:41Z</time>
      </trkpt>
      <trkpt lat="41.74623" lon="9.28913">
        <ele>246</ele>
        <time>2022-02-09T11:03:35Z</time>
      </trkpt>
      <trkpt lat="41.74634" lon="9.2894">
        <ele>246</ele>
        <time>2022-02-09T11:03:06Z</time>
      </trkpt>
      <trkpt lat="41.74635" lon="9.28955">
        <ele>246</ele>
        <time>2022-02-09T11:02:39Z</time>
      </trkpt>
      <trkpt lat="41.74637" lon="9.28968">
        <ele>247</ele>
        <time>2022-02-09T11:02:19Z</time>
      </trkpt>
      <trkpt lat="41.74638" lon="9.28981">
        <ele>247</ele>
        <time>2022-02-09T11:01:39Z</time>
      </trkpt>
      <trkpt lat="41.7464" lon="9.28984">
        <ele>247</ele>
        <time>2022-02-09T11:01:36Z</time>
      </trkpt>
      <trkpt lat="41.74649" lon="9.28993">
        <ele>248</ele>
        <time>2022-02-09T11:01:22Z</time>
      </trkpt>
      <trkpt lat="41.74663" lon="9.29001">
        <ele>248</ele>
        <time>2022-02-09T11:01:00Z</time>
      </trkpt>
      <trkpt lat="41.74674" lon="9.29007">
        <ele>248</ele>
        <time>2022-02-09T11:00:49Z</time>
      </trkpt>
      <trkpt lat="41.74677" lon="9.29014">
        <ele>249</ele>
        <time>2022-02-09T11:00:44Z</time>
      </trkpt>
      <trkpt lat="41.74672" lon="9.2903">
        <ele>249</ele>
        <time>2022-02-09T11:00:33Z</time>
      </trkpt>
      <trkpt lat="41.74673" lon="9.29046">
        <ele>249</ele>
        <time>2022-02-09T11:00:20Z</time>
      </trkpt>
      <trkpt lat="41.74679" lon="9.29057">
        <ele>250</ele>
        <time>2022-02-09T10:59:50Z</time>
      </trkpt>
      <trkpt lat="41.74682" lon="9.29064">
        <ele>250</ele>
        <time>2022-02-09T10:59:02Z</time>
      </trkpt>
      <trkpt lat="41.74681" lon="9.29079">
        <ele>252</ele>
        <time>2022-02-09T10:57:36Z</time>
      </trkpt>
      <trkpt lat="41.74688" lon="9.29091">
        <ele>253</ele>
        <time>2022-02-09T10:57:05Z</time>
      </trkpt>
      <trkpt lat="41.74698" lon="9.29104">
        <ele>254</ele>
        <time>2022-02-09T10:56:42Z</time>
      </trkpt>
      <trkpt lat="41.74702" lon="9.29108">
        <ele>257</ele>
        <time>2022-02-09T10:55:36Z</time>
      </trkpt>
      <trkpt lat="41.74701" lon="9.29118">
        <ele>258</ele>
        <time>2022-02-09T10:55:06Z</time>
      </trkpt>
      <trkpt lat="41.74703" lon="9.29145">
        <ele>261</ele>
        <time>2022-02-09T10:54:45Z</time>
      </trkpt>
      <trkpt lat="41.74698" lon="9.29152">
        <ele>262</ele>
        <time>2022-02-09T10:54:28Z</time>
      </trkpt>
      <trkpt lat="41.74703" lon="9.29157">
        <ele>263</ele>
        <time>2022-02-09T10:53:43Z</time>
      </trkpt>
      <trkpt lat="41.74706" lon="9.29154">
        <ele>264</ele>
        <time>2022-02-09T10:53:38Z</time>
      </trkpt>
      <trkpt lat="41.74714" lon="9.29151">
        <ele>264</ele>
        <time>2022-02-09T10:53:31Z</time>
      </trkpt>
      <trkpt lat="41.74723" lon="9.29153">
        <ele>264</ele>
        <time>2022-02-09T10:53:11Z</time>
      </trkpt>
      <trkpt lat="41.74729" lon="9.29169">
        <ele>264</ele>
        <time>2022-02-09T10:52:48Z</time>
      </trkpt>
      <trkpt lat="41.74731" lon="9.29179">
        <ele>264</ele>
        <time>2022-02-09T10:52:30Z</time>
      </trkpt>
      <trkpt lat="41.74738" lon="9.29193">
        <ele>264</ele>
        <time>2022-02-09T10:52:08Z</time>
      </trkpt>
      <trkpt lat="41.74741" lon="9.29209">
        <ele>264</ele>
        <time>2022-02-09T10:51:31Z</time>
      </trkpt>
      <trkpt lat="41.74741" lon="9.29223">
        <ele>264</ele>
        <time>2022-02-09T10:51:04Z</time>
      </trkpt>
      <trkpt lat="41.74741" lon="9.29239">
        <ele>263</ele>
        <time>2022-02-09T10:50:27Z</time>
      </trkpt>
      <trkpt lat="41.7474" lon="9.2925">
        <ele>264</ele>
        <time>2022-02-09T10:50:18Z</time>
      </trkpt>
      <trkpt lat="41.74732" lon="9.29256">
        <ele>264</ele>
        <time>2022-02-09T10:49:34Z</time>
      </trkpt>
      <trkpt lat="41.74723" lon="9.29265">
        <ele>264</ele>
        <time>2022-02-09T10:49:06Z</time>
      </trkpt>
      <trkpt lat="41.74724" lon="9.29272">
        <ele>264</ele>
        <time>2022-02-09T10:48:34Z</time>
      </trkpt>
      <trkpt lat="41.74716" lon="9.29283">
        <ele>263</ele>
        <time>2022-02-09T10:47:57Z</time>
      </trkpt>
      <trkpt lat="41.74707" lon="9.29291">
        <ele>263</ele>
        <time>2022-02-09T10:47:28Z</time>
      </trkpt>
      <trkpt lat="41.74704" lon="9.29298">
        <ele>263</ele>
        <time>2022-02-09T10:45:52Z</time>
      </trkpt>
      <trkpt lat="41.74708" lon="9.29302">
        <ele>263</ele>
        <time>2022-02-09T10:45:15Z</time>
      </trkpt>
      <trkpt lat="41.74698" lon="9.29331">
        <ele>260</ele>
        <time>2022-02-09T10:44:38Z</time>
      </trkpt>
      <trkpt lat="41.74697" lon="9.29328">
        <ele>256</ele>
        <time>2022-02-09T10:43:42Z</time>
      </trkpt>
      <trkpt lat="41.74686" lon="9.29331">
        <ele>256</ele>
        <time>2022-02-09T10:42:26Z</time>
      </trkpt>
      <trkpt lat="41.74672" lon="9.29331">
        <ele>255</ele>
        <time>2022-02-09T10:42:14Z</time>
      </trkpt>
      <trkpt lat="41.74671" lon="9.29342">
        <ele>255</ele>
        <time>2022-02-09T10:42:03Z</time>
      </trkpt>
      <trkpt lat="41.74678" lon="9.2936">
        <ele>255</ele>
        <time>2022-02-09T10:41:44Z</time>
      </trkpt>
      <trkpt lat="41.74687" lon="9.29376">
        <ele>254</ele>
        <time>2022-02-09T10:41:14Z</time>
      </trkpt>
      <trkpt lat="41.74695" lon="9.29393">
        <ele>252</ele>
        <time>2022-02-09T10:39:25Z</time>
      </trkpt>
      <trkpt lat="41.74694" lon="9.29393">
        <ele>251</ele>
        <time>2022-02-09T10:37:45Z</time>
      </trkpt>
      <trkpt lat="41.74679" lon="9.29397">
        <ele>249</ele>
        <time>2022-02-09T10:36:58Z</time>
      </trkpt>
      <trkpt lat="41.74674" lon="9.29407">
        <ele>248</ele>
        <time>2022-02-09T10:36:15Z</time>
      </trkpt>
      <trkpt lat="41.7465" lon="9.29408">
        <ele>246</ele>
        <time>2022-02-09T10:35:40Z</time>
      </trkpt>
      <trkpt lat="41.74643" lon="9.29407">
        <ele>245</ele>
        <time>2022-02-09T10:35:27Z</time>
      </trkpt>
      <trkpt lat="41.74631" lon="9.29423">
        <ele>243</ele>
        <time>2022-02-09T10:34:24Z</time>
      </trkpt>
      <trkpt lat="41.74624" lon="9.29439">
        <ele>243</ele>
        <time>2022-02-09T10:34:05Z</time>
      </trkpt>
      <trkpt lat="41.7461" lon="9.29449">
        <ele>242</ele>
        <time>2022-02-09T10:33:41Z</time>
      </trkpt>
      <trkpt lat="41.74603" lon="9.2945">
        <ele>242</ele>
        <time>2022-02-09T10:33:31Z</time>
      </trkpt>
      <trkpt lat="41.74588" lon="9.29457">
        <ele>240</ele>
        <time>2022-02-09T10:33:05Z</time>
      </trkpt>
      <trkpt lat="41.7458" lon="9.29464">
        <ele>233</ele>
        <time>2022-02-09T10:29:54Z</time>
      </trkpt>
      <trkpt lat="41.74565" lon="9.29478">
        <ele>232</ele>
        <time>2022-02-09T10:29:30Z</time>
      </trkpt>
      <trkpt lat="41.7455" lon="9.29484">
        <ele>231</ele>
        <time>2022-02-09T10:29:02Z</time>
      </trkpt>
      <trkpt lat="41.74542" lon="9.29501">
        <ele>231</ele>
        <time>2022-02-09T10:28:24Z</time>
      </trkpt>
      <trkpt lat="41.74539" lon="9.29511">
        <ele>230</ele>
        <time>2022-02-09T10:28:09Z</time>
      </trkpt>
      <trkpt lat="41.74526" lon="9.29534">
        <ele>229</ele>
        <time>2022-02-09T10:27:24Z</time>
      </trkpt>
      <trkpt lat="41.74513" lon="9.29522">
        <ele>228</ele>
        <time>2022-02-09T10:26:37Z</time>
      </trkpt>
      <trkpt lat="41.74498" lon="9.29511">
        <ele>227</ele>
        <time>2022-02-09T10:26:05Z</time>
      </trkpt>
      <trkpt lat="41.7449" lon="9.29503">
        <ele>227</ele>
        <time>2022-02-09T10:26:00Z</time>
      </trkpt>
      <trkpt lat="41.74479" lon="9.29494">
        <ele>226</ele>
        <time>2022-02-09T10:24:44Z</time>
      </trkpt>
      <trkpt lat="41.74474" lon="9.29476">
        <ele>225</ele>
        <time>2022-02-09T10:24:24Z</time>
      </trkpt>
      <trkpt lat="41.74466" lon="9.29463">
        <ele>225</ele>
        <time>2022-02-09T10:23:53Z</time>
      </trkpt>
      <trkpt lat="41.74459" lon="9.29458">
        <ele>224</ele>
        <time>2022-02-09T10:23:32Z</time>
      </trkpt>
      <trkpt lat="41.74447" lon="9.29451">
        <ele>224</ele>
        <time>2022-02-09T10:22:33Z</time>
      </trkpt>
      <trkpt lat="41.74427" lon="9.29433">
        <ele>223</ele>
        <time>2022-02-09T10:22:02Z</time>
      </trkpt>
      <trkpt lat="41.74413" lon="9.29426">
        <ele>223</ele>
        <time>2022-02-09T10:21:39Z</time>
      </trkpt>
      <trkpt lat="41.74379" lon="9.29413">
        <ele>223</ele>
        <time>2022-02-09T10:21:03Z</time>
      </trkpt>
      <trkpt lat="41.74361" lon="9.29394">
        <ele>222</ele>
        <time>2022-02-09T10:20:42Z</time>
      </trkpt>
      <trkpt lat="41.74351" lon="9.29379">
        <ele>222</ele>
        <time>2022-02-09T10:20:29Z</time>
      </trkpt>
      <trkpt lat="41.74341" lon="9.29372">
        <ele>222</ele>
        <time>2022-02-09T10:20:14Z</time>
      </trkpt>
      <trkpt lat="41.74332" lon="9.29363">
        <ele>223</ele>
        <time>2022-02-09T10:19:26Z</time>
      </trkpt>
      <trkpt lat="41.74329" lon="9.2936">
        <ele>223</ele>
        <time>2022-02-09T10:19:23Z</time>
      </trkpt>
      <trkpt lat="41.74322" lon="9.29353">
        <ele>223</ele>
        <time>2022-02-09T10:19:12Z</time>
      </trkpt>
      <trkpt lat="41.74315" lon="9.29345">
        <ele>205.6</ele>
      </trkpt>
      <trkpt lat="41.74311" lon="9.29349">
        <ele>205.7</ele>
      </trkpt>
      <trkpt lat="41.74283" lon="9.29352">
        <ele>204.9</ele>
        <time>2022-02-09T10:18:40Z</time>
      </trkpt>
      <trkpt lat="41.74257" lon="9.29366">
        <ele>204.4</ele>
        <time>2022-02-09T10:18:25Z</time>
      </trkpt>
      <trkpt lat="41.74237" lon="9.29379">
        <ele>204.3</ele>
        <time>2022-02-09T10:18:00Z</time>
      </trkpt>
      <trkpt lat="41.74212" lon="9.29411">
        <ele>204</ele>
        <time>2022-02-09T10:17:23Z</time>
      </trkpt>
      <trkpt lat="41.74192" lon="9.29439">
        <ele>203</ele>
        <time>2022-02-09T10:17:08Z</time>
      </trkpt>
      <trkpt lat="41.74178" lon="9.2946">
        <ele>201.2</ele>
      </trkpt>
      <trkpt lat="41.74169" lon="9.29472">
        <ele>200.3</ele>
        <time>2022-02-09T10:16:41Z</time>
      </trkpt>
      <trkpt lat="41.74168" lon="9.29483">
        <ele>225</ele>
        <time>2022-02-09T10:16:28Z</time>
      </trkpt>
      <trkpt lat="41.74167" lon="9.29514">
        <ele>225</ele>
        <time>2022-02-09T10:16:10Z</time>
      </trkpt>
      <trkpt lat="41.74161" lon="9.29527">
        <ele>197.6</ele>
        <time>2022-02-09T10:15:59Z</time>
      </trkpt>
      <trkpt lat="41.74157" lon="9.29552">
        <ele>197.4</ele>
        <time>2022-02-09T10:15:36Z</time>
      </trkpt>
      <trkpt lat="41.74142" lon="9.29573">
        <ele>194.9</ele>
        <time>2022-02-09T10:15:24Z</time>
      </trkpt>
      <trkpt lat="41.7413" lon="9.29592">
        <ele>194.2</ele>
        <time>2022-02-09T10:14:47Z</time>
      </trkpt>
      <trkpt lat="41.74121" lon="9.29601">
        <ele>193.5</ele>
      </trkpt>
      <trkpt lat="41.74122" lon="9.29644">
        <ele>196.5</ele>
      </trkpt>
      <trkpt lat="41.74123" lon="9.2967">
        <ele>200.5</ele>
      </trkpt>
      <trkpt lat="41.74126" lon="9.2969">
        <ele>201.5</ele>
        <time>2022-02-09T10:13:57Z</time>
      </trkpt>
      <trkpt lat="41.74121" lon="9.29705">
        <ele>201.4</ele>
      </trkpt>
      <trkpt lat="41.74117" lon="9.29712">
        <ele>201.2</ele>
      </trkpt>
      <trkpt lat="41.74106" lon="9.29717">
        <ele>200.2</ele>
        <time>2022-02-09T10:12:55Z</time>
      </trkpt>
      <trkpt lat="41.74081" lon="9.29715">
        <ele>199.8</ele>
      </trkpt>
      <trkpt lat="41.74075" lon="9.29733">
        <ele>204.5</ele>
        <time>2022-03-05T11:36:33Z</time>
      </trkpt>
      <trkpt lat="41.7407" lon="9.2975">
        <ele>206.7</ele>
        <time>2022-03-05T11:35:42Z</time>
      </trkpt>
      <trkpt lat="41.74069" lon="9.2977">
        <ele>208.8</ele>
      </trkpt>
      <trkpt lat="41.74063" lon="9.29784">
        <ele>211.4</ele>
        <time>2022-03-05T11:34:59Z</time>
      </trkpt>
      <trkpt lat="41.74063" lon="9.29797">
        <ele>211.1</ele>
        <time>2022-03-05T11:34:53Z</time>
      </trkpt>
      <trkpt lat="41.74063" lon="9.29818">
        <ele>212.3</ele>
        <time>2022-03-05T11:34:41Z</time>
      </trkpt>
      <trkpt lat="41.74064" lon="9.29833">
        <ele>213.8</ele>
      </trkpt>
      <trkpt lat="41.74067" lon="9.29844">
        <ele>215</ele>
        <time>2022-03-05T11:34:18Z</time>
      </trkpt>
      <trkpt lat="41.74069" lon="9.29854">
        <ele>216.4</ele>
      </trkpt>
      <trkpt lat="41.74072" lon="9.29867">
        <ele>217.2</ele>
        <time>2022-03-05T11:34:01Z</time>
      </trkpt>
      <trkpt lat="41.74073" lon="9.2988">
        <ele>218.1</ele>
        <time>2022-03-05T11:33:51Z</time>
      </trkpt>
      <trkpt lat="41.74075" lon="9.29896">
        <ele>219.2</ele>
      </trkpt>
      <trkpt lat="41.74077" lon="9.2991">
        <ele>220.7</ele>
        <time>2022-03-05T11:33:31Z</time>
      </trkpt>
      <trkpt lat="41.74082" lon="9.29931">
        <ele>222.9</ele>
      </trkpt>
      <trkpt lat="41.74084" lon="9.29944">
        <ele>224.8</ele>
        <time>2022-03-05T11:32:52Z</time>
      </trkpt>
      <trkpt lat="41.74079" lon="9.29952">
        <ele>227.8</ele>
        <time>2022-03-05T11:32:42Z</time>
      </trkpt>
      <trkpt lat="41.74079" lon="9.29984">
        <ele>232.1</ele>
        <time>2022-03-05T11:32:11Z</time>
      </trkpt>
      <trkpt lat="41.74086" lon="9.3">
        <ele>312</ele>
        <time>2022-03-05T11:31:42Z</time>
      </trkpt>
      <trkpt lat="41.74084" lon="9.30005">
        <ele>312</ele>
        <time>2022-03-05T11:31:36Z</time>
      </trkpt>
      <trkpt lat="41.74077" lon="9.30016">
        <ele>313</ele>
        <time>2022-03-05T11:31:28Z</time>
      </trkpt>
      <trkpt lat="41.74074" lon="9.3004">
        <ele>314</ele>
        <time>2022-03-05T11:31:20Z</time>
      </trkpt>
      <trkpt lat="41.74059" lon="9.30044">
        <ele>317</ele>
        <time>2022-03-05T11:30:25Z</time>
      </trkpt>
      <trkpt lat="41.74051" lon="9.3005">
        <ele>318</ele>
        <time>2022-03-05T11:29:53Z</time>
      </trkpt>
      <trkpt lat="41.74046" lon="9.30058">
        <ele>318</ele>
        <time>2022-03-05T11:29:50Z</time>
      </trkpt>
      <trkpt lat="41.74047" lon="9.3008">
        <ele>319</ele>
        <time>2022-03-05T11:29:27Z</time>
      </trkpt>
      <trkpt lat="41.74047" lon="9.30083">
        <ele>320</ele>
        <time>2022-03-05T11:28:56Z</time>
      </trkpt>
      <trkpt lat="41.74045" lon="9.30098">
        <ele>323</ele>
        <time>2022-03-05T11:27:44Z</time>
      </trkpt>
      <trkpt lat="41.74046" lon="9.30113">
        <ele>324</ele>
        <time>2022-03-05T11:27:26Z</time>
      </trkpt>
      <trkpt lat="41.74046" lon="9.30119">
        <ele>324</ele>
        <time>2022-03-05T11:27:17Z</time>
      </trkpt>
      <trkpt lat="41.74047" lon="9.30131">
        <ele>325</ele>
        <time>2022-03-05T11:27:06Z</time>
      </trkpt>
      <trkpt lat="41.7405" lon="9.30138">
        <ele>326</ele>
        <time>2022-03-05T11:26:34Z</time>
      </trkpt>
      <trkpt lat="41.74045" lon="9.3015">
        <ele>327</ele>
        <time>2022-03-05T11:26:15Z</time>
      </trkpt>
      <trkpt lat="41.7404" lon="9.30162">
        <ele>327</ele>
        <time>2022-03-05T11:25:52Z</time>
      </trkpt>
      <trkpt lat="41.74038" lon="9.30167">
        <ele>328</ele>
        <time>2022-03-05T11:25:48Z</time>
      </trkpt>
      <trkpt lat="41.74028" lon="9.30176">
        <ele>329</ele>
        <time>2022-03-05T11:24:57Z</time>
      </trkpt>
      <trkpt lat="41.74025" lon="9.30187">
        <ele>330</ele>
        <time>2022-03-05T11:24:51Z</time>
      </trkpt>
      <trkpt lat="41.74022" lon="9.30203">
        <ele>331</ele>
        <time>2022-03-05T11:24:14Z</time>
      </trkpt>
      <trkpt lat="41.74024" lon="9.30213">
        <ele>332</ele>
        <time>2022-03-05T11:23:43Z</time>
      </trkpt>
      <trkpt lat="41.74029" lon="9.30221">
        <ele>332</ele>
        <time>2022-03-05T11:23:34Z</time>
      </trkpt>
      <trkpt lat="41.74036" lon="9.3023">
        <ele>334</ele>
        <time>2022-03-05T11:22:47Z</time>
      </trkpt>
      <trkpt lat="41.7404" lon="9.30228">
        <ele>334</ele>
        <time>2022-03-05T11:22:16Z</time>
      </trkpt>
      <trkpt lat="41.74046" lon="9.30228">
        <ele>336</ele>
        <time>2022-03-05T11:21:02Z</time>
      </trkpt>
      <trkpt lat="41.74047" lon="9.30249">
        <ele>337</ele>
        <time>2022-03-05T11:20:35Z</time>
      </trkpt>
      <trkpt lat="41.74042" lon="9.30257">
        <ele>337</ele>
        <time>2022-03-05T11:20:13Z</time>
      </trkpt>
      <trkpt lat="41.74041" lon="9.30269">
        <ele>337</ele>
        <time>2022-03-05T11:20:05Z</time>
      </trkpt>
      <trkpt lat="41.74044" lon="9.30272">
        <ele>337</ele>
        <time>2022-03-05T11:19:53Z</time>
      </trkpt>
      <trkpt lat="41.74053" lon="9.30288">
        <ele>338</ele>
        <time>2022-03-05T11:19:27Z</time>
      </trkpt>
      <trkpt lat="41.7405" lon="9.30305">
        <ele>338</ele>
        <time>2022-03-05T11:19:04Z</time>
      </trkpt>
      <trkpt lat="41.74048" lon="9.30312">
        <ele>338</ele>
        <time>2022-03-05T11:18:59Z</time>
      </trkpt>
      <trkpt lat="41.74056" lon="9.30328">
        <ele>338</ele>
        <time>2022-03-05T11:18:20Z</time>
      </trkpt>
      <trkpt lat="41.74061" lon="9.30335">
        <ele>339</ele>
        <time>2022-03-05T11:18:10Z</time>
      </trkpt>
      <trkpt lat="41.74074" lon="9.30337">
        <ele>339</ele>
        <time>2022-03-05T11:17:56Z</time>
      </trkpt>
      <trkpt lat="41.74089" lon="9.30343">
        <ele>339</ele>
        <time>2022-03-05T11:17:36Z</time>
      </trkpt>
      <trkpt lat="41.74091" lon="9.30348">
        <ele>341</ele>
        <time>2022-03-05T11:15:33Z</time>
      </trkpt>
      <trkpt lat="41.74087" lon="9.30356">
        <ele>342</ele>
        <time>2022-03-05T11:12:48Z</time>
      </trkpt>
      <trkpt lat="41.74087" lon="9.30365">
        <ele>342</ele>
        <time>2022-03-05T11:12:27Z</time>
      </trkpt>
      <trkpt lat="41.74084" lon="9.30375">
        <ele>341</ele>
        <time>2022-03-05T11:12:10Z</time>
      </trkpt>
      <trkpt lat="41.74078" lon="9.30389">
        <ele>339</ele>
        <time>2022-03-05T11:11:52Z</time>
      </trkpt>
      <trkpt lat="41.74081" lon="9.30393">
        <ele>339</ele>
        <time>2022-03-05T11:11:47Z</time>
      </trkpt>
      <trkpt lat="41.74084" lon="9.30402">
        <ele>325.8</ele>
        <time>2022-03-05T11:11:19Z</time>
      </trkpt>
      <trkpt lat="41.74078" lon="9.30415">
        <ele>325</ele>
        <time>2022-03-05T11:10:49Z</time>
      </trkpt>
      <trkpt lat="41.74075" lon="9.30421">
        <ele>325</ele>
        <time>2022-03-05T11:10:44Z</time>
      </trkpt>
      <trkpt lat="41.74071" lon="9.30423">
        <ele>324</ele>
        <time>2022-03-05T11:10:29Z</time>
      </trkpt>
      <trkpt lat="41.74067" lon="9.30431">
        <ele>342</ele>
        <time>2022-03-27T09:43:38Z</time>
      </trkpt>
      <trkpt lat="41.74065" lon="9.30445">
        <ele>347</ele>
        <time>2022-03-27T09:44:02Z</time>
      </trkpt>
      <trkpt lat="41.74067" lon="9.30458">
        <ele>350</ele>
        <time>2022-03-27T09:44:25Z</time>
      </trkpt>
      <trkpt lat="41.74056" lon="9.30458">
        <ele>352</ele>
        <time>2022-03-27T09:44:40Z</time>
      </trkpt>
      <trkpt lat="41.74051" lon="9.30471">
        <ele>355</ele>
        <time>2022-03-27T09:45:02Z</time>
      </trkpt>
      <trkpt lat="41.7403" lon="9.30469">
        <ele>359</ele>
        <time>2022-03-27T09:45:40Z</time>
      </trkpt>
      <trkpt lat="41.74022" lon="9.30476">
        <ele>361</ele>
        <time>2022-03-27T09:45:50Z</time>
      </trkpt>
      <trkpt lat="41.74016" lon="9.30486">
        <ele>364</ele>
        <time>2022-03-27T09:46:06Z</time>
      </trkpt>
      <trkpt lat="41.74016" lon="9.30504">
        <ele>366</ele>
        <time>2022-03-27T09:46:24Z</time>
      </trkpt>
      <trkpt lat="41.74011" lon="9.30531">
        <ele>369</ele>
        <time>2022-03-27T09:46:51Z</time>
      </trkpt>
      <trkpt lat="41.74002" lon="9.3054">
        <ele>370</ele>
        <time>2022-03-27T09:47:00Z</time>
      </trkpt>
      <trkpt lat="41.74001" lon="9.30554">
        <ele>373</ele>
        <time>2022-03-27T09:47:19Z</time>
      </trkpt>
      <trkpt lat="41.73986" lon="9.30563">
        <ele>376</ele>
        <time>2022-03-27T09:47:40Z</time>
      </trkpt>
      <trkpt lat="41.73983" lon="9.30573">
        <ele>376</ele>
        <time>2022-03-27T09:47:50Z</time>
      </trkpt>
      <trkpt lat="41.7396" lon="9.30594">
        <ele>379</ele>
        <time>2022-03-27T09:48:18Z</time>
      </trkpt>
      <trkpt lat="41.73957" lon="9.30606">
        <ele>380</ele>
        <time>2022-03-27T09:48:28Z</time>
      </trkpt>
      <trkpt lat="41.73945" lon="9.30612">
        <ele>383</ele>
        <time>2022-03-27T09:48:43Z</time>
      </trkpt>
      <trkpt lat="41.73937" lon="9.30621">
        <ele>387</ele>
        <time>2022-03-27T09:49:09Z</time>
      </trkpt>
      <trkpt lat="41.7394" lon="9.30633">
        <ele>388</ele>
        <time>2022-03-27T09:49:17Z</time>
      </trkpt>
      <trkpt lat="41.7393" lon="9.30647">
        <ele>391</ele>
        <time>2022-03-27T09:49:43Z</time>
      </trkpt>
      <trkpt lat="41.73919" lon="9.30655">
        <ele>394</ele>
        <time>2022-03-27T09:50:04Z</time>
      </trkpt>
      <trkpt lat="41.73918" lon="9.30669">
        <ele>395</ele>
        <time>2022-03-27T09:50:38Z</time>
      </trkpt>
      <trkpt lat="41.73909" lon="9.30665">
        <ele>394</ele>
        <time>2022-03-27T09:50:51Z</time>
      </trkpt>
      <trkpt lat="41.73909" lon="9.30679">
        <ele>394</ele>
        <time>2022-03-27T09:52:07Z</time>
      </trkpt>
      <trkpt lat="41.73911" lon="9.30691">
        <ele>389.4</ele>
        <time>2022-03-27T09:56:15Z</time>
      </trkpt>
      <trkpt lat="41.73897" lon="9.30692">
        <ele>390.9</ele>
      </trkpt>
      <trkpt lat="41.7388" lon="9.30695">
        <ele>392.1</ele>
      </trkpt>
      <trkpt lat="41.73864" lon="9.30698">
        <ele>393</ele>
      </trkpt>
      <trkpt lat="41.73855" lon="9.30699">
        <ele>393.7</ele>
      </trkpt>
      <trkpt lat="41.73846" lon="9.30698">
        <ele>394</ele>
      </trkpt>
      <trkpt lat="41.73807" lon="9.30675">
        <ele>397.6</ele>
      </trkpt>
      <trkpt lat="41.73771" lon="9.30632">
        <ele>400.1</ele>
      </trkpt>
      <trkpt lat="41.73742" lon="9.30605">
        <ele>403.5</ele>
      </trkpt>
      <trkpt lat="41.73714" lon="9.30592">
        <ele>404.6</ele>
      </trkpt>
      <trkpt lat="41.7369" lon="9.30598">
        <ele>406.2</ele>
      </trkpt>
      <trkpt lat="41.73661" lon="9.30626">
        <ele>408.6</ele>
      </trkpt>
      <trkpt lat="41.73669" lon="9.30589">
        <ele>406.3</ele>
      </trkpt>
      <trkpt lat="41.73667" lon="9.30561">
        <ele>402.8</ele>
      </trkpt>
      <trkpt lat="41.73658" lon="9.30521">
        <ele>399.8</ele>
      </trkpt>
      <trkpt lat="41.73651" lon="9.30469">
        <ele>398.5</ele>
      </trkpt>
      <trkpt lat="41.73637" lon="9.30428">
        <ele>398.9</ele>
      </trkpt>
      <trkpt lat="41.73615" lon="9.30375">
        <ele>395.3</ele>
      </trkpt>
      <trkpt lat="41.736" lon="9.30334">
        <ele>395.2</ele>
      </trkpt>
      <trkpt lat="41.73581" lon="9.30302">
        <ele>392.5</ele>
      </trkpt>
      <trkpt lat="41.73568" lon="9.30267">
        <ele>390.6</ele>
      </trkpt>
      <trkpt lat="41.73549" lon="9.30224">
        <ele>389.9</ele>
      </trkpt>
      <trkpt lat="41.73546" lon="9.3013">
        <ele>386.4</ele>
      </trkpt>
      <trkpt lat="41.73549" lon="9.30059">
        <ele>379.8</ele>
      </trkpt>
      <trkpt lat="41.7353" lon="9.29963">
        <ele>372.6</ele>
      </trkpt>
      <trkpt lat="41.73529" lon="9.29956">
        <ele>367.7</ele>
      </trkpt>
      <trkpt lat="41.73525" lon="9.29946">
        <ele>367.1</ele>
      </trkpt>
      <trkpt lat="41.73518" lon="9.29942">
        <ele>378</ele>
      </trkpt>
      <trkpt lat="41.73507" lon="9.29934">
        <ele>377</ele>
      </trkpt>
      <trkpt lat="41.73491" lon="9.29962">
        <ele>369.3</ele>
      </trkpt>
      <trkpt lat="41.73485" lon="9.29972">
        <ele>369.4</ele>
      </trkpt>
      <trkpt lat="41.73476" lon="9.29974">
        <ele>368.3</ele>
      </trkpt>
      <trkpt lat="41.73438" lon="9.30003">
        <ele>367</ele>
      </trkpt>
      <trkpt lat="41.73408" lon="9.30029">
        <ele>364</ele>
      </trkpt>
      <trkpt lat="41.73389" lon="9.30061">
        <ele>360.7</ele>
      </trkpt>
      <trkpt lat="41.73378" lon="9.30071">
        <ele>357.7</ele>
      </trkpt>
      <trkpt lat="41.73372" lon="9.30084">
        <ele>357.2</ele>
      </trkpt>
      <trkpt lat="41.73365" lon="9.30096">
        <ele>354.5</ele>
      </trkpt>
      <trkpt lat="41.73357" lon="9.30086">
        <ele>351.4</ele>
      </trkpt>
      <trkpt lat="41.73345" lon="9.30084">
        <ele>346.6</ele>
      </trkpt>
      <trkpt lat="41.73336" lon="9.30105">
        <ele>342.4</ele>
      </trkpt>
      <trkpt lat="41.73329" lon="9.30102">
        <ele>339.7</ele>
      </trkpt>
      <trkpt lat="41.73325" lon="9.30105">
        <ele>337.7</ele>
      </trkpt>
      <trkpt lat="41.7332" lon="9.30121">
        <ele>335.5</ele>
      </trkpt>
      <trkpt lat="41.73309" lon="9.30139">
        <ele>331.6</ele>
      </trkpt>
      <trkpt lat="41.73294" lon="9.30157">
        <ele>326.9</ele>
      </trkpt>
      <trkpt lat="41.7328" lon="9.30178">
        <ele>324</ele>
      </trkpt>
      <trkpt lat="41.73266" lon="9.30175">
        <ele>319</ele>
      </trkpt>
      <trkpt lat="41.73261" lon="9.30195">
        <ele>318</ele>
      </trkpt>
      <trkpt lat="41.73252" lon="9.30198">
        <ele>315.9</ele>
      </trkpt>
      <trkpt lat="41.7324" lon="9.30188">
        <ele>313.1</ele>
      </trkpt>
      <trkpt lat="41.73228" lon="9.30191">
        <ele>311.5</ele>
      </trkpt>
      <trkpt lat="41.73222" lon="9.30173">
        <ele>307</ele>
      </trkpt>
      <trkpt lat="41.73217" lon="9.30172">
        <ele>306</ele>
      </trkpt>
      <trkpt lat="41.73195" lon="9.30184">
        <ele>306.4</ele>
      </trkpt>
      <trkpt lat="41.73189" lon="9.30192">
        <ele>312.2</ele>
      </trkpt>
      <trkpt lat="41.73181" lon="9.30195">
        <ele>311</ele>
      </trkpt>
      <trkpt lat="41.73174" lon="9.30187">
        <ele>303</ele>
      </trkpt>
      <trkpt lat="41.73151" lon="9.30172">
        <ele>300</ele>
      </trkpt>
      <trkpt lat="41.73137" lon="9.3017">
        <ele>298</ele>
      </trkpt>
      <trkpt lat="41.73122" lon="9.3016">
        <ele>298.4</ele>
      </trkpt>
      <trkpt lat="41.73102" lon="9.30158">
        <ele>295.2</ele>
      </trkpt>
      <trkpt lat="41.73096" lon="9.30151">
        <ele>294.6</ele>
      </trkpt>
      <trkpt lat="41.73088" lon="9.30147">
        <ele>293</ele>
      </trkpt>
      <trkpt lat="41.73082" lon="9.30133">
        <ele>291.1</ele>
      </trkpt>
      <trkpt lat="41.73079" lon="9.30127">
        <ele>289.8</ele>
      </trkpt>
      <trkpt lat="41.73075" lon="9.30122">
        <ele>288.7</ele>
      </trkpt>
      <trkpt lat="41.73065" lon="9.30126">
        <ele>278.2</ele>
      </trkpt>
      <trkpt lat="41.73043" lon="9.30119">
        <ele>273.9</ele>
      </trkpt>
      <trkpt lat="41.73013" lon="9.30109">
        <ele>268.8</ele>
      </trkpt>
      <trkpt lat="41.73004" lon="9.30118">
        <ele>273.1</ele>
      </trkpt>
      <trkpt lat="41.72996" lon="9.30119">
        <ele>266.5</ele>
      </trkpt>
      <trkpt lat="41.72988" lon="9.30112">
        <ele>264.6</ele>
      </trkpt>
      <trkpt lat="41.72963" lon="9.30114">
        <ele>259.9</ele>
      </trkpt>
      <trkpt lat="41.72959" lon="9.30108">
        <ele>264.8</ele>
      </trkpt>
      <trkpt lat="41.72953" lon="9.30105">
        <ele>263.7</ele>
      </trkpt>
      <trkpt lat="41.72951" lon="9.30099">
        <ele>262.7</ele>
      </trkpt>
      <trkpt lat="41.72946" lon="9.30095">
        <ele>261.6</ele>
      </trkpt>
      <trkpt lat="41.72939" lon="9.30092">
        <ele>260.2</ele>
      </trkpt>
      <trkpt lat="41.72937" lon="9.30083">
        <ele>258.9</ele>
      </trkpt>
      <trkpt lat="41.72931" lon="9.30074">
        <ele>251.3</ele>
      </trkpt>
      <trkpt lat="41.72921" lon="9.30071">
        <ele>254.9</ele>
      </trkpt>
      <trkpt lat="41.72918" lon="9.30066">
        <ele>253.6</ele>
      </trkpt>
      <trkpt lat="41.72897" lon="9.3006">
        <ele>241.5</ele>
      </trkpt>
      <trkpt lat="41.72896" lon="9.30054">
        <ele>246.5</ele>
      </trkpt>
      <trkpt lat="41.72895" lon="9.30052">
        <ele>245.9</ele>
      </trkpt>
      <trkpt lat="41.72893" lon="9.3005">
        <ele>245.1</ele>
      </trkpt>
      <trkpt lat="41.72888" lon="9.3005">
        <ele>244</ele>
      </trkpt>
      <trkpt lat="41.72883" lon="9.30044">
        <ele>242.5</ele>
      </trkpt>
      <trkpt lat="41.72879" lon="9.30027">
        <ele>239.8</ele>
      </trkpt>
      <trkpt lat="41.72868" lon="9.30029">
        <ele>238.8</ele>
      </trkpt>
      <trkpt lat="41.72864" lon="9.30026">
        <ele>237.9</ele>
      </trkpt>
      <trkpt lat="41.72861" lon="9.30024">
        <ele>237.1</ele>
      </trkpt>
      <trkpt lat="41.72854" lon="9.30017">
        <ele>233.9</ele>
      </trkpt>
      <trkpt lat="41.7285" lon="9.30021">
        <ele>233.6</ele>
      </trkpt>
      <trkpt lat="41.72846" lon="9.30021">
        <ele>232.6</ele>
      </trkpt>
      <trkpt lat="41.72839" lon="9.30018">
        <ele>230</ele>
      </trkpt>
      <trkpt lat="41.72829" lon="9.30033">
        <ele>228</ele>
      </trkpt>
      <trkpt lat="41.72823" lon="9.30021">
        <ele>225</ele>
      </trkpt>
      <trkpt lat="41.72791" lon="9.30007">
        <ele>213</ele>
      </trkpt>
      <trkpt lat="41.7277" lon="9.3">
        <ele>206</ele>
      </trkpt>
      <trkpt lat="41.72761" lon="9.30009">
        <ele>203</ele>
      </trkpt>
      <trkpt lat="41.72756" lon="9.29995">
        <ele>196.2</ele>
      </trkpt>
      <trkpt lat="41.72757" lon="9.29988">
        <ele>196.4</ele>
      </trkpt>
      <trkpt lat="41.7275" lon="9.29984">
        <ele>194</ele>
      </trkpt>
      <trkpt lat="41.72747" lon="9.29977">
        <ele>192.5</ele>
      </trkpt>
      <trkpt lat="41.72742" lon="9.29966">
        <ele>190.3</ele>
      </trkpt>
      <trkpt lat="41.72741" lon="9.29954">
        <ele>187.9</ele>
      </trkpt>
      <trkpt lat="41.72736" lon="9.29952">
        <ele>187.7</ele>
      </trkpt>
      <trkpt lat="41.72736" lon="9.29947">
        <ele>187.4</ele>
      </trkpt>
      <trkpt lat="41.7273" lon="9.29945">
        <ele>185.4</ele>
      </trkpt>
      <trkpt lat="41.72729" lon="9.29941">
        <ele>184.7</ele>
      </trkpt>
      <trkpt lat="41.72726" lon="9.29937">
        <ele>183.2</ele>
      </trkpt>
      <trkpt lat="41.72718" lon="9.29937">
        <ele>186</ele>
      </trkpt>
      <trkpt lat="41.727" lon="9.29905">
        <ele>175</ele>
      </trkpt>
      <trkpt lat="41.7267" lon="9.29879">
        <ele>170</ele>
      </trkpt>
      <trkpt lat="41.72653" lon="9.29868">
        <ele>167</ele>
      </trkpt>
      <trkpt lat="41.72625" lon="9.29861">
        <ele>164</ele>
      </trkpt>
      <trkpt lat="41.72618" lon="9.29852">
        <ele>156</ele>
      </trkpt>
      <trkpt lat="41.72606" lon="9.29846">
        <ele>159</ele>
      </trkpt>
      <trkpt lat="41.72603" lon="9.29846">
        <ele>153.9</ele>
      </trkpt>
      <trkpt lat="41.72598" lon="9.29833">
        <ele>153.1</ele>
      </trkpt>
      <trkpt lat="41.72592" lon="9.29834">
        <ele>151.9</ele>
      </trkpt>
      <trkpt lat="41.72587" lon="9.29829">
        <ele>149.6</ele>
      </trkpt>
      <trkpt lat="41.7258" lon="9.29827">
        <ele>147.4</ele>
      </trkpt>
      <trkpt lat="41.72581" lon="9.29822">
        <ele>146.6</ele>
      </trkpt>
      <trkpt lat="41.72582" lon="9.29816">
        <ele>145.4</ele>
      </trkpt>
      <trkpt lat="41.72576" lon="9.29821">
        <ele>145.1</ele>
      </trkpt>
      <trkpt lat="41.72571" lon="9.29821">
        <ele>144.1</ele>
      </trkpt>
      <trkpt lat="41.72567" lon="9.29805">
        <ele>141.2</ele>
      </trkpt>
      <trkpt lat="41.72554" lon="9.29811">
        <ele>140</ele>
      </trkpt>
      <trkpt lat="41.72548" lon="9.29809">
        <ele>148</ele>
      </trkpt>
      <trkpt lat="41.7254" lon="9.29812">
        <ele>138.4</ele>
      </trkpt>
      <trkpt lat="41.72537" lon="9.29818">
        <ele>138.6</ele>
      </trkpt>
      <trkpt lat="41.7253" lon="9.29835">
        <ele>140.1</ele>
      </trkpt>
      <trkpt lat="41.72518" lon="9.29851">
        <ele>139.9</ele>
      </trkpt>
      <trkpt lat="41.72509" lon="9.29853">
        <ele>141.7</ele>
      </trkpt>
      <trkpt lat="41.72502" lon="9.29858">
        <ele>139</ele>
      </trkpt>
      <trkpt lat="41.72491" lon="9.29872">
        <ele>143.4</ele>
      </trkpt>
      <trkpt lat="41.72481" lon="9.29885">
        <ele>138.2</ele>
      </trkpt>
      <trkpt lat="41.72473" lon="9.2989">
        <ele>137.3</ele>
      </trkpt>
      <trkpt lat="41.72466" lon="9.29893">
        <ele>137.5</ele>
      </trkpt>
      <trkpt lat="41.72454" lon="9.29907">
        <ele>137.8</ele>
      </trkpt>
      <trkpt lat="41.72456" lon="9.29911">
        <ele>138.5</ele>
      </trkpt>
      <trkpt lat="41.72449" lon="9.29924">
        <ele>139.2</ele>
      </trkpt>
      <trkpt lat="41.7244" lon="9.29925">
        <ele>137.6</ele>
      </trkpt>
      <trkpt lat="41.72432" lon="9.29932">
        <ele>137</ele>
      </trkpt>
      <trkpt lat="41.72425" lon="9.29938">
        <ele>136.8</ele>
      </trkpt>
      <trkpt lat="41.72415" lon="9.2994">
        <ele>135.5</ele>
      </trkpt>
      <trkpt lat="41.72404" lon="9.29948">
        <ele>143</ele>
      </trkpt>
      <trkpt lat="41.72396" lon="9.2997">
        <ele>136.5</ele>
      </trkpt>
      <trkpt lat="41.72386" lon="9.29972">
        <ele>135.7</ele>
      </trkpt>
      <trkpt lat="41.72384" lon="9.2998">
        <ele>137.1</ele>
      </trkpt>
      <trkpt lat="41.72382" lon="9.29984">
        <ele>146.2</ele>
      </trkpt>
      <trkpt lat="41.72376" lon="9.29986">
        <ele>136.6</ele>
      </trkpt>
      <trkpt lat="41.7237" lon="9.29994">
        <ele>136.6</ele>
      </trkpt>
      <trkpt lat="41.7236" lon="9.30003">
        <ele>136.1</ele>
      </trkpt>
      <trkpt lat="41.72342" lon="9.30031">
        <ele>149.2</ele>
      </trkpt>
      <trkpt lat="41.72298" lon="9.30085">
        <ele>155.2</ele>
      </trkpt>
      <trkpt lat="41.72257" lon="9.3014">
        <ele>160.1</ele>
      </trkpt>
      <trkpt lat="41.72242" lon="9.30161">
        <ele>162.1</ele>
      </trkpt>
      <trkpt lat="41.72223" lon="9.30164">
        <ele>158.8</ele>
      </trkpt>
      <trkpt lat="41.72204" lon="9.30166">
        <ele>155.4</ele>
      </trkpt>
      <trkpt lat="41.72192" lon="9.30198">
        <ele>159</ele>
      </trkpt>
      <trkpt lat="41.72173" lon="9.30217">
        <ele>159.4</ele>
      </trkpt>
      <trkpt lat="41.72117" lon="9.30233">
        <ele>152.2</ele>
      </trkpt>
      <trkpt lat="41.72085" lon="9.30236">
        <ele>146.8</ele>
      </trkpt>
      <trkpt lat="41.72069" lon="9.30228">
        <ele>143.4</ele>
      </trkpt>
      <trkpt lat="41.72052" lon="9.30238">
        <ele>143</ele>
      </trkpt>
      <trkpt lat="41.72039" lon="9.30231">
        <ele>140.5</ele>
      </trkpt>
      <trkpt lat="41.72023" lon="9.30243">
        <ele>140.1</ele>
      </trkpt>
      <trkpt lat="41.72023" lon="9.30227">
        <ele>138.1</ele>
      </trkpt>
      <trkpt lat="41.72014" lon="9.3021">
        <ele>138</ele>
      </trkpt>
      <trkpt lat="41.71969" lon="9.30246">
        <ele>127.5</ele>
      </trkpt>
      <trkpt lat="41.71928" lon="9.30296">
        <ele>127.2</ele>
      </trkpt>
    </trkseg>
  </trk>
</gpx>